<?xml version="1.0" encoding="UTF-8" standalone="no" ?>
<gpx xmlns="http://www.topografix.com/GPX/1/1" xmlns:xsi="http://www.w3.org/2001/XMLSchema-instance" xsi:schemaLocation="http://www.topografix.com/GPX/1/1 http://www.topografix.com/GPX/1/1/gpx.xsd" version="1.1" creator="VisuGPX - https://www.visugpx.com">
  <metadata>
    <name>Entre le Beaucet et Saint Gens</name>
    <desc><![CDATA[Balade entre le Beaucet et Saint Gens en passant par la Roque sur Pernes]]></desc>
  </metadata>
  <trk>
    <name><![CDATA[2019-11-18 15-11-45]]></name>
    <trkseg>
      <trkpt lat="43.98318" lon="5.11899">
        <ele>236.62</ele>
        <time>2019-11-18T08:27:08Z</time>
      </trkpt>
      <trkpt lat="43.98321" lon="5.11904">
        <ele>236.14</ele>
        <time>2019-11-18T08:27:37Z</time>
      </trkpt>
      <trkpt lat="43.98322" lon="5.11904">
        <ele>236.14</ele>
        <time>2019-11-18T08:28:02Z</time>
      </trkpt>
      <trkpt lat="43.98317" lon="5.11904">
        <ele>235.18</ele>
        <time>2019-11-18T08:28:32Z</time>
      </trkpt>
      <trkpt lat="43.9832" lon="5.11899">
        <ele>236.62</ele>
        <time>2019-11-18T08:28:52Z</time>
      </trkpt>
      <trkpt lat="43.98321" lon="5.11896">
        <ele>236.14</ele>
        <time>2019-11-18T08:29:21Z</time>
      </trkpt>
      <trkpt lat="43.98319" lon="5.11895">
        <ele>236.14</ele>
        <time>2019-11-18T08:29:44Z</time>
      </trkpt>
      <trkpt lat="43.98319" lon="5.11897">
        <ele>236.14</ele>
        <time>2019-11-18T08:30:05Z</time>
      </trkpt>
      <trkpt lat="43.98319" lon="5.11897">
        <ele>236.14</ele>
        <time>2019-11-18T08:30:30Z</time>
      </trkpt>
      <trkpt lat="43.9832" lon="5.11899">
        <ele>236.14</ele>
        <time>2019-11-18T08:30:55Z</time>
      </trkpt>
      <trkpt lat="43.98324" lon="5.11898">
        <ele>235.18</ele>
        <time>2019-11-18T08:31:13Z</time>
      </trkpt>
      <trkpt lat="43.98323" lon="5.11897">
        <ele>235.66</ele>
        <time>2019-11-18T08:36:05Z</time>
      </trkpt>
      <trkpt lat="43.98323" lon="5.11899">
        <ele>235.66</ele>
        <time>2019-11-18T08:37:39Z</time>
      </trkpt>
      <trkpt lat="43.98325" lon="5.11897">
        <ele>235.66</ele>
        <time>2019-11-18T08:40:17Z</time>
      </trkpt>
      <trkpt lat="43.98325" lon="5.11897">
        <ele>235.66</ele>
        <time>2019-11-18T08:41:54Z</time>
      </trkpt>
      <trkpt lat="43.98322" lon="5.11897">
        <ele>235.66</ele>
        <time>2019-11-18T08:42:10Z</time>
      </trkpt>
      <trkpt lat="43.98321" lon="5.11896">
        <ele>235.66</ele>
        <time>2019-11-18T08:43:06Z</time>
      </trkpt>
      <trkpt lat="43.98321" lon="5.11895">
        <ele>235.66</ele>
        <time>2019-11-18T08:43:26Z</time>
      </trkpt>
      <trkpt lat="43.9832" lon="5.11897">
        <ele>235.66</ele>
        <time>2019-11-18T08:43:50Z</time>
      </trkpt>
      <trkpt lat="43.98321" lon="5.11898">
        <ele>235.66</ele>
        <time>2019-11-18T08:44:16Z</time>
      </trkpt>
      <trkpt lat="43.9832" lon="5.11902">
        <ele>235.66</ele>
        <time>2019-11-18T08:44:47Z</time>
      </trkpt>
      <trkpt lat="43.98321" lon="5.119">
        <ele>235.66</ele>
        <time>2019-11-18T08:45:09Z</time>
      </trkpt>
      <trkpt lat="43.98321" lon="5.11898">
        <ele>235.66</ele>
        <time>2019-11-18T08:45:29Z</time>
      </trkpt>
      <trkpt lat="43.98321" lon="5.11899">
        <ele>235.66</ele>
        <time>2019-11-18T08:45:51Z</time>
      </trkpt>
      <trkpt lat="43.98319" lon="5.11891">
        <ele>235.66</ele>
        <time>2019-11-18T08:46:01Z</time>
      </trkpt>
      <trkpt lat="43.98326" lon="5.11873">
        <ele>235.66</ele>
        <time>2019-11-18T08:46:18Z</time>
      </trkpt>
      <trkpt lat="43.98329" lon="5.11872">
        <ele>235.66</ele>
        <time>2019-11-18T08:46:22Z</time>
      </trkpt>
      <trkpt lat="43.98339" lon="5.1186">
        <ele>234.22</ele>
        <time>2019-11-18T08:46:38Z</time>
      </trkpt>
      <trkpt lat="43.9835" lon="5.11849">
        <ele>232.3</ele>
        <time>2019-11-18T08:47:00Z</time>
      </trkpt>
      <trkpt lat="43.98359" lon="5.1185">
        <ele>232.3</ele>
        <time>2019-11-18T08:47:05Z</time>
      </trkpt>
      <trkpt lat="43.98366" lon="5.11845">
        <ele>231.81</ele>
        <time>2019-11-18T08:47:11Z</time>
      </trkpt>
      <trkpt lat="43.98378" lon="5.11827">
        <ele>229.89</ele>
        <time>2019-11-18T08:47:29Z</time>
      </trkpt>
      <trkpt lat="43.9839" lon="5.11813">
        <ele>228.45</ele>
        <time>2019-11-18T08:47:48Z</time>
      </trkpt>
      <trkpt lat="43.98407" lon="5.11795">
        <ele>226.53</ele>
        <time>2019-11-18T08:48:09Z</time>
      </trkpt>
      <trkpt lat="43.98408" lon="5.11773">
        <ele>225.57</ele>
        <time>2019-11-18T08:48:27Z</time>
      </trkpt>
      <trkpt lat="43.98405" lon="5.11765">
        <ele>225.09</ele>
        <time>2019-11-18T08:48:32Z</time>
      </trkpt>
      <trkpt lat="43.98399" lon="5.11743">
        <ele>225.09</ele>
        <time>2019-11-18T08:48:50Z</time>
      </trkpt>
      <trkpt lat="43.98383" lon="5.1172">
        <ele>225.57</ele>
        <time>2019-11-18T08:49:07Z</time>
      </trkpt>
      <trkpt lat="43.98369" lon="5.11705">
        <ele>225.57</ele>
        <time>2019-11-18T08:49:23Z</time>
      </trkpt>
      <trkpt lat="43.98354" lon="5.11688">
        <ele>225.57</ele>
        <time>2019-11-18T08:49:42Z</time>
      </trkpt>
      <trkpt lat="43.98339" lon="5.11665">
        <ele>227.01</ele>
        <time>2019-11-18T08:50:03Z</time>
      </trkpt>
      <trkpt lat="43.98325" lon="5.11642">
        <ele>227.49</ele>
        <time>2019-11-18T08:50:22Z</time>
      </trkpt>
      <trkpt lat="43.98314" lon="5.11622">
        <ele>227.97</ele>
        <time>2019-11-18T08:50:39Z</time>
      </trkpt>
      <trkpt lat="43.98294" lon="5.11602">
        <ele>229.41</ele>
        <time>2019-11-18T08:51:00Z</time>
      </trkpt>
      <trkpt lat="43.98283" lon="5.1159">
        <ele>229.41</ele>
        <time>2019-11-18T08:51:12Z</time>
      </trkpt>
      <trkpt lat="43.98268" lon="5.11574">
        <ele>229.41</ele>
        <time>2019-11-18T08:51:31Z</time>
      </trkpt>
      <trkpt lat="43.98268" lon="5.11572">
        <ele>229.41</ele>
        <time>2019-11-18T08:51:32Z</time>
      </trkpt>
      <trkpt lat="43.9826" lon="5.11548">
        <ele>228.45</ele>
        <time>2019-11-18T08:51:48Z</time>
      </trkpt>
      <trkpt lat="43.98247" lon="5.1153">
        <ele>227.97</ele>
        <time>2019-11-18T08:52:05Z</time>
      </trkpt>
      <trkpt lat="43.98241" lon="5.11515">
        <ele>227.49</ele>
        <time>2019-11-18T08:52:25Z</time>
      </trkpt>
      <trkpt lat="43.98242" lon="5.11515">
        <ele>227.49</ele>
        <time>2019-11-18T08:52:40Z</time>
      </trkpt>
      <trkpt lat="43.98242" lon="5.11517">
        <ele>227.49</ele>
        <time>2019-11-18T08:53:20Z</time>
      </trkpt>
      <trkpt lat="43.98243" lon="5.11517">
        <ele>227.49</ele>
        <time>2019-11-18T08:53:48Z</time>
      </trkpt>
      <trkpt lat="43.98244" lon="5.11516">
        <ele>227.49</ele>
        <time>2019-11-18T08:54:35Z</time>
      </trkpt>
      <trkpt lat="43.98243" lon="5.11508">
        <ele>227.49</ele>
        <time>2019-11-18T08:55:18Z</time>
      </trkpt>
      <trkpt lat="43.98238" lon="5.115">
        <ele>227.49</ele>
        <time>2019-11-18T08:55:40Z</time>
      </trkpt>
      <trkpt lat="43.98232" lon="5.11489">
        <ele>227.49</ele>
        <time>2019-11-18T08:55:59Z</time>
      </trkpt>
      <trkpt lat="43.98217" lon="5.11471">
        <ele>227.49</ele>
        <time>2019-11-18T08:56:18Z</time>
      </trkpt>
      <trkpt lat="43.98213" lon="5.11466">
        <ele>234.7</ele>
        <time>2019-11-18T08:56:24Z</time>
      </trkpt>
      <trkpt lat="43.98212" lon="5.11466">
        <ele>234.7</ele>
        <time>2019-11-18T08:56:25Z</time>
      </trkpt>
      <trkpt lat="43.98209" lon="5.11455">
        <ele>236.62</ele>
        <time>2019-11-18T08:56:45Z</time>
      </trkpt>
      <trkpt lat="43.9823" lon="5.11456">
        <ele>237.1</ele>
        <time>2019-11-18T08:57:08Z</time>
      </trkpt>
      <trkpt lat="43.98235" lon="5.11458">
        <ele>237.1</ele>
        <time>2019-11-18T08:57:12Z</time>
      </trkpt>
      <trkpt lat="43.98256" lon="5.11465">
        <ele>237.1</ele>
        <time>2019-11-18T08:57:30Z</time>
      </trkpt>
      <trkpt lat="43.98272" lon="5.11465">
        <ele>237.58</ele>
        <time>2019-11-18T08:57:44Z</time>
      </trkpt>
      <trkpt lat="43.9829" lon="5.11466">
        <ele>238.06</ele>
        <time>2019-11-18T08:58:04Z</time>
      </trkpt>
      <trkpt lat="43.9829" lon="5.11447">
        <ele>239.99</ele>
        <time>2019-11-18T08:58:22Z</time>
      </trkpt>
      <trkpt lat="43.98282" lon="5.11412">
        <ele>242.87</ele>
        <time>2019-11-18T08:58:45Z</time>
      </trkpt>
      <trkpt lat="43.98279" lon="5.11403">
        <ele>245.75</ele>
        <time>2019-11-18T08:58:57Z</time>
      </trkpt>
      <trkpt lat="43.98269" lon="5.11393">
        <ele>248.64</ele>
        <time>2019-11-18T08:59:15Z</time>
      </trkpt>
      <trkpt lat="43.98279" lon="5.11383">
        <ele>250.08</ele>
        <time>2019-11-18T08:59:36Z</time>
      </trkpt>
      <trkpt lat="43.98269" lon="5.11383">
        <ele>252.48</ele>
        <time>2019-11-18T08:59:56Z</time>
      </trkpt>
      <trkpt lat="43.98257" lon="5.11379">
        <ele>255.37</ele>
        <time>2019-11-18T09:00:12Z</time>
      </trkpt>
      <trkpt lat="43.98261" lon="5.11373">
        <ele>258.25</ele>
        <time>2019-11-18T09:00:31Z</time>
      </trkpt>
      <trkpt lat="43.98262" lon="5.11362">
        <ele>261.62</ele>
        <time>2019-11-18T09:00:52Z</time>
      </trkpt>
      <trkpt lat="43.98259" lon="5.11351">
        <ele>264.98</ele>
        <time>2019-11-18T09:01:09Z</time>
      </trkpt>
      <trkpt lat="43.98264" lon="5.11344">
        <ele>267.86</ele>
        <time>2019-11-18T09:01:28Z</time>
      </trkpt>
      <trkpt lat="43.98258" lon="5.11334">
        <ele>271.23</ele>
        <time>2019-11-18T09:01:49Z</time>
      </trkpt>
      <trkpt lat="43.98254" lon="5.11333">
        <ele>272.19</ele>
        <time>2019-11-18T09:02:01Z</time>
      </trkpt>
      <trkpt lat="43.98251" lon="5.11336">
        <ele>272.67</ele>
        <time>2019-11-18T09:02:32Z</time>
      </trkpt>
      <trkpt lat="43.98254" lon="5.11335">
        <ele>272.19</ele>
        <time>2019-11-18T09:02:57Z</time>
      </trkpt>
      <trkpt lat="43.98257" lon="5.11334">
        <ele>272.19</ele>
        <time>2019-11-18T09:03:39Z</time>
      </trkpt>
      <trkpt lat="43.98256" lon="5.11339">
        <ele>272.19</ele>
        <time>2019-11-18T09:04:09Z</time>
      </trkpt>
      <trkpt lat="43.98257" lon="5.11338">
        <ele>272.19</ele>
        <time>2019-11-18T09:04:39Z</time>
      </trkpt>
      <trkpt lat="43.98254" lon="5.11338">
        <ele>272.19</ele>
        <time>2019-11-18T09:05:06Z</time>
      </trkpt>
      <trkpt lat="43.98247" lon="5.11332">
        <ele>272.19</ele>
        <time>2019-11-18T09:05:22Z</time>
      </trkpt>
      <trkpt lat="43.98235" lon="5.11332">
        <ele>272.19</ele>
        <time>2019-11-18T09:05:39Z</time>
      </trkpt>
      <trkpt lat="43.98217" lon="5.11336">
        <ele>269.31</ele>
        <time>2019-11-18T09:05:52Z</time>
      </trkpt>
      <trkpt lat="43.982" lon="5.1133">
        <ele>267.86</ele>
        <time>2019-11-18T09:06:11Z</time>
      </trkpt>
      <trkpt lat="43.98183" lon="5.11317">
        <ele>268.35</ele>
        <time>2019-11-18T09:06:31Z</time>
      </trkpt>
      <trkpt lat="43.98169" lon="5.11308">
        <ele>270.27</ele>
        <time>2019-11-18T09:06:51Z</time>
      </trkpt>
      <trkpt lat="43.98152" lon="5.11305">
        <ele>273.15</ele>
        <time>2019-11-18T09:07:12Z</time>
      </trkpt>
      <trkpt lat="43.98138" lon="5.11301">
        <ele>276.04</ele>
        <time>2019-11-18T09:07:34Z</time>
      </trkpt>
      <trkpt lat="43.9813" lon="5.11297">
        <ele>278.92</ele>
        <time>2019-11-18T09:07:52Z</time>
      </trkpt>
      <trkpt lat="43.98126" lon="5.11293">
        <ele>281.8</ele>
        <time>2019-11-18T09:08:07Z</time>
      </trkpt>
      <trkpt lat="43.9812" lon="5.11286">
        <ele>284.69</ele>
        <time>2019-11-18T09:08:25Z</time>
      </trkpt>
      <trkpt lat="43.9811" lon="5.11295">
        <ele>285.65</ele>
        <time>2019-11-18T09:08:49Z</time>
      </trkpt>
      <trkpt lat="43.98097" lon="5.11292">
        <ele>287.09</ele>
        <time>2019-11-18T09:09:11Z</time>
      </trkpt>
      <trkpt lat="43.98079" lon="5.11289">
        <ele>289.97</ele>
        <time>2019-11-18T09:09:36Z</time>
      </trkpt>
      <trkpt lat="43.98064" lon="5.11284">
        <ele>292.38</ele>
        <time>2019-11-18T09:09:59Z</time>
      </trkpt>
      <trkpt lat="43.98049" lon="5.11285">
        <ele>294.3</ele>
        <time>2019-11-18T09:10:17Z</time>
      </trkpt>
      <trkpt lat="43.98042" lon="5.1129">
        <ele>295.74</ele>
        <time>2019-11-18T09:10:37Z</time>
      </trkpt>
      <trkpt lat="43.98042" lon="5.11293">
        <ele>295.74</ele>
        <time>2019-11-18T09:11:00Z</time>
      </trkpt>
      <trkpt lat="43.98042" lon="5.11293">
        <ele>295.74</ele>
        <time>2019-11-18T09:11:20Z</time>
      </trkpt>
      <trkpt lat="43.98043" lon="5.11293">
        <ele>295.74</ele>
        <time>2019-11-18T09:11:49Z</time>
      </trkpt>
      <trkpt lat="43.98043" lon="5.11295">
        <ele>295.74</ele>
        <time>2019-11-18T09:12:17Z</time>
      </trkpt>
      <trkpt lat="43.98044" lon="5.11297">
        <ele>295.74</ele>
        <time>2019-11-18T09:12:50Z</time>
      </trkpt>
      <trkpt lat="43.98044" lon="5.11299">
        <ele>295.74</ele>
        <time>2019-11-18T09:13:20Z</time>
      </trkpt>
      <trkpt lat="43.98044" lon="5.11299">
        <ele>295.74</ele>
        <time>2019-11-18T09:13:45Z</time>
      </trkpt>
      <trkpt lat="43.98044" lon="5.11298">
        <ele>295.74</ele>
        <time>2019-11-18T09:14:12Z</time>
      </trkpt>
      <trkpt lat="43.98041" lon="5.11291">
        <ele>295.74</ele>
        <time>2019-11-18T09:14:39Z</time>
      </trkpt>
      <trkpt lat="43.98029" lon="5.11286">
        <ele>295.74</ele>
        <time>2019-11-18T09:14:57Z</time>
      </trkpt>
      <trkpt lat="43.98021" lon="5.11275">
        <ele>297.67</ele>
        <time>2019-11-18T09:15:13Z</time>
      </trkpt>
      <trkpt lat="43.98007" lon="5.11266">
        <ele>299.59</ele>
        <time>2019-11-18T09:15:33Z</time>
      </trkpt>
      <trkpt lat="43.97989" lon="5.11258">
        <ele>301.51</ele>
        <time>2019-11-18T09:15:54Z</time>
      </trkpt>
      <trkpt lat="43.97979" lon="5.11249">
        <ele>301.99</ele>
        <time>2019-11-18T09:16:07Z</time>
      </trkpt>
      <trkpt lat="43.97964" lon="5.11236">
        <ele>303.43</ele>
        <time>2019-11-18T09:16:25Z</time>
      </trkpt>
      <trkpt lat="43.97948" lon="5.1122">
        <ele>303.91</ele>
        <time>2019-11-18T09:16:46Z</time>
      </trkpt>
      <trkpt lat="43.97941" lon="5.11213">
        <ele>304.39</ele>
        <time>2019-11-18T09:16:55Z</time>
      </trkpt>
      <trkpt lat="43.97924" lon="5.11197">
        <ele>304.39</ele>
        <time>2019-11-18T09:17:13Z</time>
      </trkpt>
      <trkpt lat="43.97906" lon="5.11183">
        <ele>304.88</ele>
        <time>2019-11-18T09:17:32Z</time>
      </trkpt>
      <trkpt lat="43.97893" lon="5.1117">
        <ele>305.36</ele>
        <time>2019-11-18T09:17:47Z</time>
      </trkpt>
      <trkpt lat="43.97888" lon="5.1116">
        <ele>305.36</ele>
        <time>2019-11-18T09:17:54Z</time>
      </trkpt>
      <trkpt lat="43.97886" lon="5.11137">
        <ele>305.36</ele>
        <time>2019-11-18T09:18:11Z</time>
      </trkpt>
      <trkpt lat="43.97882" lon="5.11116">
        <ele>304.88</ele>
        <time>2019-11-18T09:18:27Z</time>
      </trkpt>
      <trkpt lat="43.97878" lon="5.11106">
        <ele>304.39</ele>
        <time>2019-11-18T09:18:34Z</time>
      </trkpt>
      <trkpt lat="43.97877" lon="5.11098">
        <ele>304.39</ele>
        <time>2019-11-18T09:18:40Z</time>
      </trkpt>
      <trkpt lat="43.97868" lon="5.11071">
        <ele>302.47</ele>
        <time>2019-11-18T09:19:03Z</time>
      </trkpt>
      <trkpt lat="43.97861" lon="5.11051">
        <ele>301.03</ele>
        <time>2019-11-18T09:19:19Z</time>
      </trkpt>
      <trkpt lat="43.97857" lon="5.11044">
        <ele>300.55</ele>
        <time>2019-11-18T09:19:26Z</time>
      </trkpt>
      <trkpt lat="43.97849" lon="5.11021">
        <ele>299.11</ele>
        <time>2019-11-18T09:19:44Z</time>
      </trkpt>
      <trkpt lat="43.97844" lon="5.11003">
        <ele>297.18</ele>
        <time>2019-11-18T09:20:00Z</time>
      </trkpt>
      <trkpt lat="43.97838" lon="5.10993">
        <ele>297.18</ele>
        <time>2019-11-18T09:20:19Z</time>
      </trkpt>
      <trkpt lat="43.97835" lon="5.10997">
        <ele>297.18</ele>
        <time>2019-11-18T09:20:25Z</time>
      </trkpt>
      <trkpt lat="43.97826" lon="5.11003">
        <ele>297.18</ele>
        <time>2019-11-18T09:20:39Z</time>
      </trkpt>
      <trkpt lat="43.97812" lon="5.11013">
        <ele>299.11</ele>
        <time>2019-11-18T09:20:58Z</time>
      </trkpt>
      <trkpt lat="43.97816" lon="5.1101">
        <ele>299.11</ele>
        <time>2019-11-18T09:21:15Z</time>
      </trkpt>
      <trkpt lat="43.9783" lon="5.10998">
        <ele>297.18</ele>
        <time>2019-11-18T09:21:33Z</time>
      </trkpt>
      <trkpt lat="43.97831" lon="5.10993">
        <ele>296.22</ele>
        <time>2019-11-18T09:21:36Z</time>
      </trkpt>
      <trkpt lat="43.9783" lon="5.10982">
        <ele>295.74</ele>
        <time>2019-11-18T09:21:46Z</time>
      </trkpt>
      <trkpt lat="43.97822" lon="5.10971">
        <ele>295.26</ele>
        <time>2019-11-18T09:22:01Z</time>
      </trkpt>
      <trkpt lat="43.97813" lon="5.10972">
        <ele>294.3</ele>
        <time>2019-11-18T09:22:09Z</time>
      </trkpt>
      <trkpt lat="43.97807" lon="5.10974">
        <ele>293.82</ele>
        <time>2019-11-18T09:22:14Z</time>
      </trkpt>
      <trkpt lat="43.97798" lon="5.10978">
        <ele>292.38</ele>
        <time>2019-11-18T09:22:29Z</time>
      </trkpt>
      <trkpt lat="43.978" lon="5.10969">
        <ele>291.9</ele>
        <time>2019-11-18T09:22:43Z</time>
      </trkpt>
      <trkpt lat="43.97807" lon="5.10957">
        <ele>289.49</ele>
        <time>2019-11-18T09:22:59Z</time>
      </trkpt>
      <trkpt lat="43.97809" lon="5.10955">
        <ele>288.53</ele>
        <time>2019-11-18T09:23:14Z</time>
      </trkpt>
      <trkpt lat="43.97821" lon="5.10949">
        <ele>287.09</ele>
        <time>2019-11-18T09:23:30Z</time>
      </trkpt>
      <trkpt lat="43.97836" lon="5.10946">
        <ele>285.17</ele>
        <time>2019-11-18T09:23:46Z</time>
      </trkpt>
      <trkpt lat="43.97843" lon="5.10931">
        <ele>283.25</ele>
        <time>2019-11-18T09:23:58Z</time>
      </trkpt>
      <trkpt lat="43.97846" lon="5.10923">
        <ele>282.28</ele>
        <time>2019-11-18T09:24:05Z</time>
      </trkpt>
      <trkpt lat="43.97846" lon="5.109">
        <ele>279.88</ele>
        <time>2019-11-18T09:24:23Z</time>
      </trkpt>
      <trkpt lat="43.9785" lon="5.10883">
        <ele>278.44</ele>
        <time>2019-11-18T09:24:39Z</time>
      </trkpt>
      <trkpt lat="43.97852" lon="5.10877">
        <ele>277.96</ele>
        <time>2019-11-18T09:24:53Z</time>
      </trkpt>
      <trkpt lat="43.97845" lon="5.10885">
        <ele>278.44</ele>
        <time>2019-11-18T09:25:13Z</time>
      </trkpt>
      <trkpt lat="43.97847" lon="5.10883">
        <ele>278.44</ele>
        <time>2019-11-18T09:25:34Z</time>
      </trkpt>
      <trkpt lat="43.97851" lon="5.10874">
        <ele>277.96</ele>
        <time>2019-11-18T09:25:55Z</time>
      </trkpt>
      <trkpt lat="43.97854" lon="5.10861">
        <ele>277.48</ele>
        <time>2019-11-18T09:26:15Z</time>
      </trkpt>
      <trkpt lat="43.97862" lon="5.10844">
        <ele>276.52</ele>
        <time>2019-11-18T09:26:32Z</time>
      </trkpt>
      <trkpt lat="43.97864" lon="5.10829">
        <ele>276.04</ele>
        <time>2019-11-18T09:26:45Z</time>
      </trkpt>
      <trkpt lat="43.97865" lon="5.1081">
        <ele>274.11</ele>
        <time>2019-11-18T09:27:01Z</time>
      </trkpt>
      <trkpt lat="43.97861" lon="5.10789">
        <ele>271.71</ele>
        <time>2019-11-18T09:27:20Z</time>
      </trkpt>
      <trkpt lat="43.97862" lon="5.10773">
        <ele>268.83</ele>
        <time>2019-11-18T09:27:41Z</time>
      </trkpt>
      <trkpt lat="43.97863" lon="5.10778">
        <ele>268.35</ele>
        <time>2019-11-18T09:28:00Z</time>
      </trkpt>
      <trkpt lat="43.97859" lon="5.10786">
        <ele>267.86</ele>
        <time>2019-11-18T09:28:18Z</time>
      </trkpt>
      <trkpt lat="43.97862" lon="5.10779">
        <ele>268.35</ele>
        <time>2019-11-18T09:28:44Z</time>
      </trkpt>
      <trkpt lat="43.97862" lon="5.10779">
        <ele>267.86</ele>
        <time>2019-11-18T09:29:06Z</time>
      </trkpt>
      <trkpt lat="43.97859" lon="5.10777">
        <ele>267.38</ele>
        <time>2019-11-18T09:30:03Z</time>
      </trkpt>
      <trkpt lat="43.97859" lon="5.10774">
        <ele>267.38</ele>
        <time>2019-11-18T09:31:54Z</time>
      </trkpt>
      <trkpt lat="43.97859" lon="5.10779">
        <ele>267.38</ele>
        <time>2019-11-18T09:32:50Z</time>
      </trkpt>
      <trkpt lat="43.9786" lon="5.10778">
        <ele>267.38</ele>
        <time>2019-11-18T09:33:35Z</time>
      </trkpt>
      <trkpt lat="43.97859" lon="5.10773">
        <ele>267.38</ele>
        <time>2019-11-18T09:34:41Z</time>
      </trkpt>
      <trkpt lat="43.97859" lon="5.10776">
        <ele>267.38</ele>
        <time>2019-11-18T09:35:49Z</time>
      </trkpt>
      <trkpt lat="43.9786" lon="5.10775">
        <ele>267.38</ele>
        <time>2019-11-18T09:37:09Z</time>
      </trkpt>
      <trkpt lat="43.97859" lon="5.10774">
        <ele>267.38</ele>
        <time>2019-11-18T09:37:51Z</time>
      </trkpt>
      <trkpt lat="43.97859" lon="5.10772">
        <ele>267.38</ele>
        <time>2019-11-18T09:38:42Z</time>
      </trkpt>
      <trkpt lat="43.97865" lon="5.10776">
        <ele>267.38</ele>
        <time>2019-11-18T09:39:18Z</time>
      </trkpt>
      <trkpt lat="43.97863" lon="5.10772">
        <ele>267.38</ele>
        <time>2019-11-18T09:39:51Z</time>
      </trkpt>
      <trkpt lat="43.97864" lon="5.10775">
        <ele>267.38</ele>
        <time>2019-11-18T09:40:24Z</time>
      </trkpt>
      <trkpt lat="43.97865" lon="5.1078">
        <ele>267.38</ele>
        <time>2019-11-18T09:40:52Z</time>
      </trkpt>
      <trkpt lat="43.97859" lon="5.10786">
        <ele>267.38</ele>
        <time>2019-11-18T09:41:10Z</time>
      </trkpt>
      <trkpt lat="43.97851" lon="5.10793">
        <ele>267.38</ele>
        <time>2019-11-18T09:41:33Z</time>
      </trkpt>
      <trkpt lat="43.97843" lon="5.10808">
        <ele>267.38</ele>
        <time>2019-11-18T09:41:52Z</time>
      </trkpt>
      <trkpt lat="43.97832" lon="5.10823">
        <ele>267.38</ele>
        <time>2019-11-18T09:42:11Z</time>
      </trkpt>
      <trkpt lat="43.97828" lon="5.10829">
        <ele>263.54</ele>
        <time>2019-11-18T09:42:18Z</time>
      </trkpt>
      <trkpt lat="43.97827" lon="5.1083">
        <ele>261.62</ele>
        <time>2019-11-18T09:42:21Z</time>
      </trkpt>
      <trkpt lat="43.97825" lon="5.10832">
        <ele>261.14</ele>
        <time>2019-11-18T09:42:41Z</time>
      </trkpt>
      <trkpt lat="43.97814" lon="5.10848">
        <ele>259.69</ele>
        <time>2019-11-18T09:43:01Z</time>
      </trkpt>
      <trkpt lat="43.97803" lon="5.10867">
        <ele>257.29</ele>
        <time>2019-11-18T09:43:21Z</time>
      </trkpt>
      <trkpt lat="43.97796" lon="5.10884">
        <ele>256.81</ele>
        <time>2019-11-18T09:43:35Z</time>
      </trkpt>
      <trkpt lat="43.97781" lon="5.109">
        <ele>257.77</ele>
        <time>2019-11-18T09:43:54Z</time>
      </trkpt>
      <trkpt lat="43.97769" lon="5.10908">
        <ele>259.21</ele>
        <time>2019-11-18T09:44:13Z</time>
      </trkpt>
      <trkpt lat="43.97763" lon="5.10913">
        <ele>257.77</ele>
        <time>2019-11-18T09:44:29Z</time>
      </trkpt>
      <trkpt lat="43.97753" lon="5.1093">
        <ele>256.81</ele>
        <time>2019-11-18T09:44:46Z</time>
      </trkpt>
      <trkpt lat="43.97742" lon="5.1094">
        <ele>255.85</ele>
        <time>2019-11-18T09:45:07Z</time>
      </trkpt>
      <trkpt lat="43.97726" lon="5.10946">
        <ele>253.93</ele>
        <time>2019-11-18T09:45:29Z</time>
      </trkpt>
      <trkpt lat="43.9771" lon="5.10948">
        <ele>252.96</ele>
        <time>2019-11-18T09:45:49Z</time>
      </trkpt>
      <trkpt lat="43.97692" lon="5.10958">
        <ele>252</ele>
        <time>2019-11-18T09:46:10Z</time>
      </trkpt>
      <trkpt lat="43.97674" lon="5.10972">
        <ele>251.52</ele>
        <time>2019-11-18T09:46:32Z</time>
      </trkpt>
      <trkpt lat="43.97665" lon="5.10984">
        <ele>252.48</ele>
        <time>2019-11-18T09:46:50Z</time>
      </trkpt>
      <trkpt lat="43.97653" lon="5.10994">
        <ele>252.96</ele>
        <time>2019-11-18T09:47:13Z</time>
      </trkpt>
      <trkpt lat="43.97641" lon="5.11005">
        <ele>252.96</ele>
        <time>2019-11-18T09:47:35Z</time>
      </trkpt>
      <trkpt lat="43.97631" lon="5.11016">
        <ele>260.65</ele>
        <time>2019-11-18T09:47:55Z</time>
      </trkpt>
      <trkpt lat="43.97631" lon="5.11018">
        <ele>260.17</ele>
        <time>2019-11-18T09:47:56Z</time>
      </trkpt>
      <trkpt lat="43.97624" lon="5.11026">
        <ele>262.58</ele>
        <time>2019-11-18T09:48:18Z</time>
      </trkpt>
      <trkpt lat="43.97609" lon="5.11031">
        <ele>265.46</ele>
        <time>2019-11-18T09:48:41Z</time>
      </trkpt>
      <trkpt lat="43.97598" lon="5.11039">
        <ele>268.35</ele>
        <time>2019-11-18T09:49:03Z</time>
      </trkpt>
      <trkpt lat="43.97589" lon="5.1105">
        <ele>271.23</ele>
        <time>2019-11-18T09:49:22Z</time>
      </trkpt>
      <trkpt lat="43.97578" lon="5.1106">
        <ele>274.59</ele>
        <time>2019-11-18T09:49:43Z</time>
      </trkpt>
      <trkpt lat="43.97561" lon="5.11073">
        <ele>277.48</ele>
        <time>2019-11-18T09:50:12Z</time>
      </trkpt>
      <trkpt lat="43.97546" lon="5.1109">
        <ele>280.36</ele>
        <time>2019-11-18T09:50:37Z</time>
      </trkpt>
      <trkpt lat="43.97536" lon="5.11098">
        <ele>281.8</ele>
        <time>2019-11-18T09:50:57Z</time>
      </trkpt>
      <trkpt lat="43.97532" lon="5.11099">
        <ele>282.28</ele>
        <time>2019-11-18T09:51:23Z</time>
      </trkpt>
      <trkpt lat="43.97527" lon="5.11109">
        <ele>282.77</ele>
        <time>2019-11-18T09:51:47Z</time>
      </trkpt>
      <trkpt lat="43.97512" lon="5.11118">
        <ele>285.17</ele>
        <time>2019-11-18T09:52:03Z</time>
      </trkpt>
      <trkpt lat="43.97503" lon="5.11126">
        <ele>287.09</ele>
        <time>2019-11-18T09:52:18Z</time>
      </trkpt>
      <trkpt lat="43.97498" lon="5.11123">
        <ele>286.61</ele>
        <time>2019-11-18T09:53:02Z</time>
      </trkpt>
      <trkpt lat="43.97499" lon="5.11127">
        <ele>287.57</ele>
        <time>2019-11-18T09:53:37Z</time>
      </trkpt>
      <trkpt lat="43.97496" lon="5.11132">
        <ele>288.53</ele>
        <time>2019-11-18T09:54:10Z</time>
      </trkpt>
      <trkpt lat="43.97486" lon="5.11149">
        <ele>291.42</ele>
        <time>2019-11-18T09:54:32Z</time>
      </trkpt>
      <trkpt lat="43.97476" lon="5.11163">
        <ele>293.34</ele>
        <time>2019-11-18T09:54:54Z</time>
      </trkpt>
      <trkpt lat="43.97462" lon="5.11182">
        <ele>295.74</ele>
        <time>2019-11-18T09:55:17Z</time>
      </trkpt>
      <trkpt lat="43.97457" lon="5.11176">
        <ele>298.15</ele>
        <time>2019-11-18T09:55:34Z</time>
      </trkpt>
      <trkpt lat="43.97448" lon="5.11186">
        <ele>300.07</ele>
        <time>2019-11-18T09:55:53Z</time>
      </trkpt>
      <trkpt lat="43.97441" lon="5.11193">
        <ele>298.15</ele>
        <time>2019-11-18T09:56:14Z</time>
      </trkpt>
      <trkpt lat="43.97429" lon="5.11206">
        <ele>299.59</ele>
        <time>2019-11-18T09:56:35Z</time>
      </trkpt>
      <trkpt lat="43.97432" lon="5.11212">
        <ele>299.59</ele>
        <time>2019-11-18T09:57:00Z</time>
      </trkpt>
      <trkpt lat="43.97418" lon="5.11213">
        <ele>300.55</ele>
        <time>2019-11-18T09:57:20Z</time>
      </trkpt>
      <trkpt lat="43.97403" lon="5.11216">
        <ele>302.47</ele>
        <time>2019-11-18T09:57:41Z</time>
      </trkpt>
      <trkpt lat="43.97389" lon="5.11217">
        <ele>303.91</ele>
        <time>2019-11-18T09:58:01Z</time>
      </trkpt>
      <trkpt lat="43.97374" lon="5.1122">
        <ele>305.36</ele>
        <time>2019-11-18T09:58:21Z</time>
      </trkpt>
      <trkpt lat="43.97357" lon="5.11227">
        <ele>307.28</ele>
        <time>2019-11-18T09:58:44Z</time>
      </trkpt>
      <trkpt lat="43.97348" lon="5.11227">
        <ele>306.8</ele>
        <time>2019-11-18T09:58:55Z</time>
      </trkpt>
      <trkpt lat="43.97332" lon="5.11233">
        <ele>309.68</ele>
        <time>2019-11-18T09:59:13Z</time>
      </trkpt>
      <trkpt lat="43.97318" lon="5.11237">
        <ele>312.09</ele>
        <time>2019-11-18T09:59:33Z</time>
      </trkpt>
      <trkpt lat="43.97302" lon="5.11237">
        <ele>314.97</ele>
        <time>2019-11-18T09:59:59Z</time>
      </trkpt>
      <trkpt lat="43.97289" lon="5.11233">
        <ele>318.33</ele>
        <time>2019-11-18T10:00:24Z</time>
      </trkpt>
      <trkpt lat="43.97274" lon="5.11227">
        <ele>321.22</ele>
        <time>2019-11-18T10:00:46Z</time>
      </trkpt>
      <trkpt lat="43.97261" lon="5.11221">
        <ele>324.1</ele>
        <time>2019-11-18T10:01:12Z</time>
      </trkpt>
      <trkpt lat="43.97243" lon="5.11217">
        <ele>326.99</ele>
        <time>2019-11-18T10:01:38Z</time>
      </trkpt>
      <trkpt lat="43.97228" lon="5.11209">
        <ele>329.87</ele>
        <time>2019-11-18T10:02:04Z</time>
      </trkpt>
      <trkpt lat="43.97214" lon="5.11203">
        <ele>331.79</ele>
        <time>2019-11-18T10:02:25Z</time>
      </trkpt>
      <trkpt lat="43.97202" lon="5.11193">
        <ele>334.2</ele>
        <time>2019-11-18T10:02:47Z</time>
      </trkpt>
      <trkpt lat="43.97193" lon="5.11189">
        <ele>336.6</ele>
        <time>2019-11-18T10:03:04Z</time>
      </trkpt>
      <trkpt lat="43.97181" lon="5.11183">
        <ele>339.96</ele>
        <time>2019-11-18T10:03:25Z</time>
      </trkpt>
      <trkpt lat="43.97177" lon="5.1118">
        <ele>341.41</ele>
        <time>2019-11-18T10:03:50Z</time>
      </trkpt>
      <trkpt lat="43.9718" lon="5.11184">
        <ele>341.41</ele>
        <time>2019-11-18T10:04:11Z</time>
      </trkpt>
      <trkpt lat="43.9718" lon="5.11187">
        <ele>341.41</ele>
        <time>2019-11-18T10:04:40Z</time>
      </trkpt>
      <trkpt lat="43.97179" lon="5.11185">
        <ele>341.41</ele>
        <time>2019-11-18T10:05:06Z</time>
      </trkpt>
      <trkpt lat="43.97178" lon="5.11184">
        <ele>340.92</ele>
        <time>2019-11-18T10:05:32Z</time>
      </trkpt>
      <trkpt lat="43.97177" lon="5.11182">
        <ele>340.92</ele>
        <time>2019-11-18T10:06:13Z</time>
      </trkpt>
      <trkpt lat="43.97177" lon="5.11181">
        <ele>340.92</ele>
        <time>2019-11-18T10:06:40Z</time>
      </trkpt>
      <trkpt lat="43.97167" lon="5.11189">
        <ele>341.41</ele>
        <time>2019-11-18T10:07:02Z</time>
      </trkpt>
      <trkpt lat="43.97149" lon="5.11199">
        <ele>342.37</ele>
        <time>2019-11-18T10:07:21Z</time>
      </trkpt>
      <trkpt lat="43.97132" lon="5.11208">
        <ele>343.33</ele>
        <time>2019-11-18T10:07:40Z</time>
      </trkpt>
      <trkpt lat="43.97114" lon="5.11217">
        <ele>343.81</ele>
        <time>2019-11-18T10:07:59Z</time>
      </trkpt>
      <trkpt lat="43.97099" lon="5.11227">
        <ele>344.77</ele>
        <time>2019-11-18T10:08:16Z</time>
      </trkpt>
      <trkpt lat="43.97082" lon="5.11235">
        <ele>346.21</ele>
        <time>2019-11-18T10:08:34Z</time>
      </trkpt>
      <trkpt lat="43.97066" lon="5.11244">
        <ele>346.69</ele>
        <time>2019-11-18T10:08:51Z</time>
      </trkpt>
      <trkpt lat="43.9705" lon="5.11255">
        <ele>347.17</ele>
        <time>2019-11-18T10:09:09Z</time>
      </trkpt>
      <trkpt lat="43.97046" lon="5.11259">
        <ele>347.17</ele>
        <time>2019-11-18T10:09:15Z</time>
      </trkpt>
      <trkpt lat="43.97026" lon="5.11273">
        <ele>347.65</ele>
        <time>2019-11-18T10:09:34Z</time>
      </trkpt>
      <trkpt lat="43.97011" lon="5.11288">
        <ele>348.62</ele>
        <time>2019-11-18T10:09:53Z</time>
      </trkpt>
      <trkpt lat="43.96997" lon="5.11303">
        <ele>348.62</ele>
        <time>2019-11-18T10:10:10Z</time>
      </trkpt>
      <trkpt lat="43.96983" lon="5.11319">
        <ele>349.58</ele>
        <time>2019-11-18T10:10:27Z</time>
      </trkpt>
      <trkpt lat="43.96973" lon="5.11343">
        <ele>351.98</ele>
        <time>2019-11-18T10:10:47Z</time>
      </trkpt>
      <trkpt lat="43.96963" lon="5.11366">
        <ele>354.38</ele>
        <time>2019-11-18T10:11:06Z</time>
      </trkpt>
      <trkpt lat="43.96959" lon="5.11382">
        <ele>354.86</ele>
        <time>2019-11-18T10:11:18Z</time>
      </trkpt>
      <trkpt lat="43.96953" lon="5.11402">
        <ele>356.31</ele>
        <time>2019-11-18T10:11:35Z</time>
      </trkpt>
      <trkpt lat="43.96954" lon="5.11407">
        <ele>356.79</ele>
        <time>2019-11-18T10:11:58Z</time>
      </trkpt>
      <trkpt lat="43.96954" lon="5.11408">
        <ele>356.79</ele>
        <time>2019-11-18T10:12:21Z</time>
      </trkpt>
      <trkpt lat="43.96959" lon="5.11419">
        <ele>356.79</ele>
        <time>2019-11-18T10:12:44Z</time>
      </trkpt>
      <trkpt lat="43.9697" lon="5.11428">
        <ele>356.79</ele>
        <time>2019-11-18T10:13:01Z</time>
      </trkpt>
      <trkpt lat="43.96977" lon="5.11442">
        <ele>356.79</ele>
        <time>2019-11-18T10:13:17Z</time>
      </trkpt>
      <trkpt lat="43.9698" lon="5.11452">
        <ele>356.31</ele>
        <time>2019-11-18T10:13:34Z</time>
      </trkpt>
      <trkpt lat="43.96981" lon="5.11455">
        <ele>356.31</ele>
        <time>2019-11-18T10:14:13Z</time>
      </trkpt>
      <trkpt lat="43.96979" lon="5.11465">
        <ele>356.31</ele>
        <time>2019-11-18T10:14:46Z</time>
      </trkpt>
      <trkpt lat="43.96981" lon="5.11469">
        <ele>356.31</ele>
        <time>2019-11-18T10:15:12Z</time>
      </trkpt>
      <trkpt lat="43.96983" lon="5.11474">
        <ele>357.27</ele>
        <time>2019-11-18T10:15:31Z</time>
      </trkpt>
      <trkpt lat="43.96973" lon="5.11478">
        <ele>357.75</ele>
        <time>2019-11-18T10:15:52Z</time>
      </trkpt>
      <trkpt lat="43.96965" lon="5.11481">
        <ele>358.23</ele>
        <time>2019-11-18T10:16:10Z</time>
      </trkpt>
      <trkpt lat="43.96966" lon="5.11476">
        <ele>358.23</ele>
        <time>2019-11-18T10:16:25Z</time>
      </trkpt>
      <trkpt lat="43.96967" lon="5.11471">
        <ele>357.75</ele>
        <time>2019-11-18T10:16:45Z</time>
      </trkpt>
      <trkpt lat="43.96956" lon="5.11464">
        <ele>358.23</ele>
        <time>2019-11-18T10:17:01Z</time>
      </trkpt>
      <trkpt lat="43.96951" lon="5.11471">
        <ele>359.67</ele>
        <time>2019-11-18T10:17:25Z</time>
      </trkpt>
      <trkpt lat="43.96951" lon="5.11471">
        <ele>359.19</ele>
        <time>2019-11-18T10:17:53Z</time>
      </trkpt>
      <trkpt lat="43.96954" lon="5.11471">
        <ele>359.19</ele>
        <time>2019-11-18T10:18:25Z</time>
      </trkpt>
      <trkpt lat="43.96953" lon="5.11474">
        <ele>361.11</ele>
        <time>2019-11-18T10:18:52Z</time>
      </trkpt>
      <trkpt lat="43.96951" lon="5.11474">
        <ele>361.11</ele>
        <time>2019-11-18T10:19:21Z</time>
      </trkpt>
      <trkpt lat="43.9695" lon="5.11479">
        <ele>361.59</ele>
        <time>2019-11-18T10:19:46Z</time>
      </trkpt>
      <trkpt lat="43.96941" lon="5.11506">
        <ele>362.07</ele>
        <time>2019-11-18T10:20:09Z</time>
      </trkpt>
      <trkpt lat="43.96937" lon="5.11514">
        <ele>362.55</ele>
        <time>2019-11-18T10:20:15Z</time>
      </trkpt>
      <trkpt lat="43.9693" lon="5.11536">
        <ele>363.04</ele>
        <time>2019-11-18T10:20:32Z</time>
      </trkpt>
      <trkpt lat="43.96921" lon="5.1156">
        <ele>364</ele>
        <time>2019-11-18T10:20:50Z</time>
      </trkpt>
      <trkpt lat="43.96911" lon="5.11581">
        <ele>365.44</ele>
        <time>2019-11-18T10:21:08Z</time>
      </trkpt>
      <trkpt lat="43.96907" lon="5.11582">
        <ele>365.44</ele>
        <time>2019-11-18T10:21:12Z</time>
      </trkpt>
      <trkpt lat="43.96883" lon="5.11585">
        <ele>366.4</ele>
        <time>2019-11-18T10:21:33Z</time>
      </trkpt>
      <trkpt lat="43.96864" lon="5.1159">
        <ele>366.4</ele>
        <time>2019-11-18T10:21:50Z</time>
      </trkpt>
      <trkpt lat="43.96841" lon="5.11603">
        <ele>365.44</ele>
        <time>2019-11-18T10:22:11Z</time>
      </trkpt>
      <trkpt lat="43.96823" lon="5.11614">
        <ele>364</ele>
        <time>2019-11-18T10:22:28Z</time>
      </trkpt>
      <trkpt lat="43.968" lon="5.1162">
        <ele>363.04</ele>
        <time>2019-11-18T10:22:50Z</time>
      </trkpt>
      <trkpt lat="43.96787" lon="5.11639">
        <ele>361.59</ele>
        <time>2019-11-18T10:23:07Z</time>
      </trkpt>
      <trkpt lat="43.96772" lon="5.11665">
        <ele>359.19</ele>
        <time>2019-11-18T10:23:28Z</time>
      </trkpt>
      <trkpt lat="43.96751" lon="5.11678">
        <ele>356.79</ele>
        <time>2019-11-18T10:23:48Z</time>
      </trkpt>
      <trkpt lat="43.9673" lon="5.11683">
        <ele>354.86</ele>
        <time>2019-11-18T10:24:06Z</time>
      </trkpt>
      <trkpt lat="43.96711" lon="5.1169">
        <ele>354.38</ele>
        <time>2019-11-18T10:24:24Z</time>
      </trkpt>
      <trkpt lat="43.96693" lon="5.11698">
        <ele>353.9</ele>
        <time>2019-11-18T10:24:41Z</time>
      </trkpt>
      <trkpt lat="43.96687" lon="5.117">
        <ele>353.9</ele>
        <time>2019-11-18T10:24:57Z</time>
      </trkpt>
      <trkpt lat="43.96687" lon="5.11702">
        <ele>353.42</ele>
        <time>2019-11-18T10:25:25Z</time>
      </trkpt>
      <trkpt lat="43.96686" lon="5.11704">
        <ele>353.42</ele>
        <time>2019-11-18T10:25:45Z</time>
      </trkpt>
      <trkpt lat="43.96683" lon="5.11709">
        <ele>353.42</ele>
        <time>2019-11-18T10:26:10Z</time>
      </trkpt>
      <trkpt lat="43.96681" lon="5.11709">
        <ele>353.42</ele>
        <time>2019-11-18T10:26:28Z</time>
      </trkpt>
      <trkpt lat="43.96682" lon="5.11708">
        <ele>353.42</ele>
        <time>2019-11-18T10:26:48Z</time>
      </trkpt>
      <trkpt lat="43.9668" lon="5.11709">
        <ele>353.42</ele>
        <time>2019-11-18T10:27:17Z</time>
      </trkpt>
      <trkpt lat="43.96681" lon="5.11711">
        <ele>353.42</ele>
        <time>2019-11-18T10:27:47Z</time>
      </trkpt>
      <trkpt lat="43.96681" lon="5.1171">
        <ele>353.42</ele>
        <time>2019-11-18T10:28:14Z</time>
      </trkpt>
      <trkpt lat="43.96683" lon="5.11712">
        <ele>353.42</ele>
        <time>2019-11-18T10:28:43Z</time>
      </trkpt>
      <trkpt lat="43.96684" lon="5.11719">
        <ele>353.42</ele>
        <time>2019-11-18T10:29:05Z</time>
      </trkpt>
      <trkpt lat="43.96685" lon="5.11742">
        <ele>351.02</ele>
        <time>2019-11-18T10:29:22Z</time>
      </trkpt>
      <trkpt lat="43.96685" lon="5.11746">
        <ele>350.06</ele>
        <time>2019-11-18T10:29:24Z</time>
      </trkpt>
      <trkpt lat="43.96683" lon="5.11774">
        <ele>348.62</ele>
        <time>2019-11-18T10:29:45Z</time>
      </trkpt>
      <trkpt lat="43.96684" lon="5.118">
        <ele>349.1</ele>
        <time>2019-11-18T10:30:04Z</time>
      </trkpt>
      <trkpt lat="43.96685" lon="5.11822">
        <ele>351.02</ele>
        <time>2019-11-18T10:30:23Z</time>
      </trkpt>
      <trkpt lat="43.96695" lon="5.11837">
        <ele>351.02</ele>
        <time>2019-11-18T10:30:43Z</time>
      </trkpt>
      <trkpt lat="43.96705" lon="5.11836">
        <ele>351.02</ele>
        <time>2019-11-18T10:31:06Z</time>
      </trkpt>
      <trkpt lat="43.96714" lon="5.1184">
        <ele>351.02</ele>
        <time>2019-11-18T10:31:23Z</time>
      </trkpt>
      <trkpt lat="43.96719" lon="5.11842">
        <ele>351.02</ele>
        <time>2019-11-18T10:31:28Z</time>
      </trkpt>
      <trkpt lat="43.96741" lon="5.11849">
        <ele>351.5</ele>
        <time>2019-11-18T10:31:49Z</time>
      </trkpt>
      <trkpt lat="43.96758" lon="5.11854">
        <ele>351.5</ele>
        <time>2019-11-18T10:32:06Z</time>
      </trkpt>
      <trkpt lat="43.96775" lon="5.11858">
        <ele>351.5</ele>
        <time>2019-11-18T10:32:23Z</time>
      </trkpt>
      <trkpt lat="43.96795" lon="5.11864">
        <ele>351.98</ele>
        <time>2019-11-18T10:32:42Z</time>
      </trkpt>
      <trkpt lat="43.96817" lon="5.11872">
        <ele>352.94</ele>
        <time>2019-11-18T10:33:03Z</time>
      </trkpt>
      <trkpt lat="43.96835" lon="5.11882">
        <ele>353.9</ele>
        <time>2019-11-18T10:33:20Z</time>
      </trkpt>
      <trkpt lat="43.9685" lon="5.11894">
        <ele>354.86</ele>
        <time>2019-11-18T10:33:37Z</time>
      </trkpt>
      <trkpt lat="43.96858" lon="5.11906">
        <ele>355.83</ele>
        <time>2019-11-18T10:33:49Z</time>
      </trkpt>
      <trkpt lat="43.96871" lon="5.11926">
        <ele>356.79</ele>
        <time>2019-11-18T10:34:05Z</time>
      </trkpt>
      <trkpt lat="43.96872" lon="5.11927">
        <ele>356.79</ele>
        <time>2019-11-18T10:34:06Z</time>
      </trkpt>
      <trkpt lat="43.96882" lon="5.1195">
        <ele>357.27</ele>
        <time>2019-11-18T10:34:24Z</time>
      </trkpt>
      <trkpt lat="43.96892" lon="5.11973">
        <ele>355.83</ele>
        <time>2019-11-18T10:34:39Z</time>
      </trkpt>
      <trkpt lat="43.969" lon="5.12">
        <ele>355.34</ele>
        <time>2019-11-18T10:34:57Z</time>
      </trkpt>
      <trkpt lat="43.96905" lon="5.12031">
        <ele>354.38</ele>
        <time>2019-11-18T10:35:16Z</time>
      </trkpt>
      <trkpt lat="43.96909" lon="5.12053">
        <ele>353.42</ele>
        <time>2019-11-18T10:35:29Z</time>
      </trkpt>
      <trkpt lat="43.96912" lon="5.12078">
        <ele>352.46</ele>
        <time>2019-11-18T10:35:45Z</time>
      </trkpt>
      <trkpt lat="43.9691" lon="5.12105">
        <ele>351.5</ele>
        <time>2019-11-18T10:36:02Z</time>
      </trkpt>
      <trkpt lat="43.96911" lon="5.12119">
        <ele>351.02</ele>
        <time>2019-11-18T10:36:10Z</time>
      </trkpt>
      <trkpt lat="43.96911" lon="5.1214">
        <ele>351.02</ele>
        <time>2019-11-18T10:36:23Z</time>
      </trkpt>
      <trkpt lat="43.96911" lon="5.1215">
        <ele>350.54</ele>
        <time>2019-11-18T10:36:30Z</time>
      </trkpt>
      <trkpt lat="43.96911" lon="5.12164">
        <ele>350.06</ele>
        <time>2019-11-18T10:36:39Z</time>
      </trkpt>
      <trkpt lat="43.96911" lon="5.12174">
        <ele>349.58</ele>
        <time>2019-11-18T10:36:44Z</time>
      </trkpt>
      <trkpt lat="43.96906" lon="5.122">
        <ele>349.1</ele>
        <time>2019-11-18T10:37:00Z</time>
      </trkpt>
      <trkpt lat="43.96902" lon="5.12229">
        <ele>348.62</ele>
        <time>2019-11-18T10:37:17Z</time>
      </trkpt>
      <trkpt lat="43.96901" lon="5.12252">
        <ele>348.62</ele>
        <time>2019-11-18T10:37:33Z</time>
      </trkpt>
      <trkpt lat="43.96901" lon="5.12259">
        <ele>347.17</ele>
        <time>2019-11-18T10:37:48Z</time>
      </trkpt>
      <trkpt lat="43.96902" lon="5.12259">
        <ele>347.17</ele>
        <time>2019-11-18T10:38:22Z</time>
      </trkpt>
      <trkpt lat="43.96906" lon="5.1226">
        <ele>347.65</ele>
        <time>2019-11-18T10:38:47Z</time>
      </trkpt>
      <trkpt lat="43.96907" lon="5.1226">
        <ele>347.65</ele>
        <time>2019-11-18T10:39:19Z</time>
      </trkpt>
      <trkpt lat="43.96907" lon="5.12261">
        <ele>347.65</ele>
        <time>2019-11-18T10:39:48Z</time>
      </trkpt>
      <trkpt lat="43.969" lon="5.12284">
        <ele>346.21</ele>
        <time>2019-11-18T10:40:07Z</time>
      </trkpt>
      <trkpt lat="43.96894" lon="5.1231">
        <ele>344.29</ele>
        <time>2019-11-18T10:40:27Z</time>
      </trkpt>
      <trkpt lat="43.9689" lon="5.12329">
        <ele>342.85</ele>
        <time>2019-11-18T10:40:42Z</time>
      </trkpt>
      <trkpt lat="43.96884" lon="5.12354">
        <ele>340.92</ele>
        <time>2019-11-18T10:41:00Z</time>
      </trkpt>
      <trkpt lat="43.96878" lon="5.12368">
        <ele>339.96</ele>
        <time>2019-11-18T10:41:10Z</time>
      </trkpt>
      <trkpt lat="43.96871" lon="5.12388">
        <ele>338.52</ele>
        <time>2019-11-18T10:41:28Z</time>
      </trkpt>
      <trkpt lat="43.96858" lon="5.12415">
        <ele>339</ele>
        <time>2019-11-18T10:41:52Z</time>
      </trkpt>
      <trkpt lat="43.96854" lon="5.12425">
        <ele>339</ele>
        <time>2019-11-18T10:41:59Z</time>
      </trkpt>
      <trkpt lat="43.96848" lon="5.12443">
        <ele>338.52</ele>
        <time>2019-11-18T10:42:17Z</time>
      </trkpt>
      <trkpt lat="43.96851" lon="5.12452">
        <ele>338.52</ele>
        <time>2019-11-18T10:42:44Z</time>
      </trkpt>
      <trkpt lat="43.96852" lon="5.12459">
        <ele>337.56</ele>
        <time>2019-11-18T10:43:05Z</time>
      </trkpt>
      <trkpt lat="43.96857" lon="5.12462">
        <ele>337.56</ele>
        <time>2019-11-18T10:43:38Z</time>
      </trkpt>
      <trkpt lat="43.96843" lon="5.12474">
        <ele>338.52</ele>
        <time>2019-11-18T10:43:55Z</time>
      </trkpt>
      <trkpt lat="43.96839" lon="5.12506">
        <ele>339.48</ele>
        <time>2019-11-18T10:44:16Z</time>
      </trkpt>
      <trkpt lat="43.96837" lon="5.12525">
        <ele>340.92</ele>
        <time>2019-11-18T10:44:30Z</time>
      </trkpt>
      <trkpt lat="43.96837" lon="5.12533">
        <ele>341.41</ele>
        <time>2019-11-18T10:44:36Z</time>
      </trkpt>
      <trkpt lat="43.96839" lon="5.12557">
        <ele>343.33</ele>
        <time>2019-11-18T10:44:54Z</time>
      </trkpt>
      <trkpt lat="43.96834" lon="5.12576">
        <ele>344.29</ele>
        <time>2019-11-18T10:45:10Z</time>
      </trkpt>
      <trkpt lat="43.96835" lon="5.12606">
        <ele>346.69</ele>
        <time>2019-11-18T10:45:33Z</time>
      </trkpt>
      <trkpt lat="43.96832" lon="5.12628">
        <ele>349.58</ele>
        <time>2019-11-18T10:45:53Z</time>
      </trkpt>
      <trkpt lat="43.96824" lon="5.1265">
        <ele>351.98</ele>
        <time>2019-11-18T10:46:14Z</time>
      </trkpt>
      <trkpt lat="43.96816" lon="5.12669">
        <ele>354.86</ele>
        <time>2019-11-18T10:46:36Z</time>
      </trkpt>
      <trkpt lat="43.96817" lon="5.12671">
        <ele>354.86</ele>
        <time>2019-11-18T10:47:00Z</time>
      </trkpt>
      <trkpt lat="43.96824" lon="5.12693">
        <ele>354.86</ele>
        <time>2019-11-18T10:47:18Z</time>
      </trkpt>
      <trkpt lat="43.96831" lon="5.12717">
        <ele>357.27</ele>
        <time>2019-11-18T10:47:39Z</time>
      </trkpt>
      <trkpt lat="43.96847" lon="5.12727">
        <ele>360.15</ele>
        <time>2019-11-18T10:47:58Z</time>
      </trkpt>
      <trkpt lat="43.96857" lon="5.12732">
        <ele>363.52</ele>
        <time>2019-11-18T10:48:15Z</time>
      </trkpt>
      <trkpt lat="43.96869" lon="5.1274">
        <ele>366.4</ele>
        <time>2019-11-18T10:48:35Z</time>
      </trkpt>
      <trkpt lat="43.96881" lon="5.12748">
        <ele>368.8</ele>
        <time>2019-11-18T10:48:54Z</time>
      </trkpt>
      <trkpt lat="43.96891" lon="5.12759">
        <ele>370.24</ele>
        <time>2019-11-18T10:49:12Z</time>
      </trkpt>
      <trkpt lat="43.96904" lon="5.12777">
        <ele>373.13</ele>
        <time>2019-11-18T10:49:35Z</time>
      </trkpt>
      <trkpt lat="43.96909" lon="5.12798">
        <ele>375.53</ele>
        <time>2019-11-18T10:49:55Z</time>
      </trkpt>
      <trkpt lat="43.96919" lon="5.12817">
        <ele>378.42</ele>
        <time>2019-11-18T10:50:16Z</time>
      </trkpt>
      <trkpt lat="43.96932" lon="5.12837">
        <ele>380.82</ele>
        <time>2019-11-18T10:50:39Z</time>
      </trkpt>
      <trkpt lat="43.96937" lon="5.12843">
        <ele>381.3</ele>
        <time>2019-11-18T10:51:04Z</time>
      </trkpt>
      <trkpt lat="43.96938" lon="5.12842">
        <ele>380.82</ele>
        <time>2019-11-18T10:51:36Z</time>
      </trkpt>
      <trkpt lat="43.96937" lon="5.12839">
        <ele>381.3</ele>
        <time>2019-11-18T10:52:11Z</time>
      </trkpt>
      <trkpt lat="43.96936" lon="5.12839">
        <ele>381.3</ele>
        <time>2019-11-18T10:52:33Z</time>
      </trkpt>
      <trkpt lat="43.9694" lon="5.12843">
        <ele>381.3</ele>
        <time>2019-11-18T10:53:09Z</time>
      </trkpt>
      <trkpt lat="43.96942" lon="5.12847">
        <ele>381.3</ele>
        <time>2019-11-18T10:53:44Z</time>
      </trkpt>
      <trkpt lat="43.96942" lon="5.12844">
        <ele>381.3</ele>
        <time>2019-11-18T10:54:17Z</time>
      </trkpt>
      <trkpt lat="43.96939" lon="5.12839">
        <ele>381.3</ele>
        <time>2019-11-18T10:54:50Z</time>
      </trkpt>
      <trkpt lat="43.96939" lon="5.1284">
        <ele>381.3</ele>
        <time>2019-11-18T10:55:25Z</time>
      </trkpt>
      <trkpt lat="43.96941" lon="5.1284">
        <ele>381.3</ele>
        <time>2019-11-18T10:56:00Z</time>
      </trkpt>
      <trkpt lat="43.96938" lon="5.1284">
        <ele>381.3</ele>
        <time>2019-11-18T10:56:30Z</time>
      </trkpt>
      <trkpt lat="43.9694" lon="5.12851">
        <ele>381.3</ele>
        <time>2019-11-18T10:56:53Z</time>
      </trkpt>
      <trkpt lat="43.96946" lon="5.12873">
        <ele>381.78</ele>
        <time>2019-11-18T10:57:12Z</time>
      </trkpt>
      <trkpt lat="43.96937" lon="5.12883">
        <ele>382.74</ele>
        <time>2019-11-18T10:57:32Z</time>
      </trkpt>
      <trkpt lat="43.96914" lon="5.12883">
        <ele>384.18</ele>
        <time>2019-11-18T10:57:50Z</time>
      </trkpt>
      <trkpt lat="43.96902" lon="5.12884">
        <ele>385.63</ele>
        <time>2019-11-18T10:58:01Z</time>
      </trkpt>
      <trkpt lat="43.96884" lon="5.12895">
        <ele>387.07</ele>
        <time>2019-11-18T10:58:19Z</time>
      </trkpt>
      <trkpt lat="43.96869" lon="5.12908">
        <ele>388.51</ele>
        <time>2019-11-18T10:58:35Z</time>
      </trkpt>
      <trkpt lat="43.96845" lon="5.12924">
        <ele>389.95</ele>
        <time>2019-11-18T10:58:55Z</time>
      </trkpt>
      <trkpt lat="43.96819" lon="5.1294">
        <ele>391.39</ele>
        <time>2019-11-18T10:59:17Z</time>
      </trkpt>
      <trkpt lat="43.96803" lon="5.12952">
        <ele>393.8</ele>
        <time>2019-11-18T10:59:33Z</time>
      </trkpt>
      <trkpt lat="43.96786" lon="5.12968">
        <ele>394.28</ele>
        <time>2019-11-18T10:59:52Z</time>
      </trkpt>
      <trkpt lat="43.96776" lon="5.12983">
        <ele>395.24</ele>
        <time>2019-11-18T11:00:08Z</time>
      </trkpt>
      <trkpt lat="43.96771" lon="5.12991">
        <ele>396.2</ele>
        <time>2019-11-18T11:00:26Z</time>
      </trkpt>
      <trkpt lat="43.96769" lon="5.12989">
        <ele>395.72</ele>
        <time>2019-11-18T11:00:52Z</time>
      </trkpt>
      <trkpt lat="43.96761" lon="5.13004">
        <ele>396.2</ele>
        <time>2019-11-18T11:01:13Z</time>
      </trkpt>
      <trkpt lat="43.9675" lon="5.13021">
        <ele>399.57</ele>
        <time>2019-11-18T11:01:33Z</time>
      </trkpt>
      <trkpt lat="43.9674" lon="5.13035">
        <ele>401.01</ele>
        <time>2019-11-18T11:01:47Z</time>
      </trkpt>
      <trkpt lat="43.96728" lon="5.13054">
        <ele>402.45</ele>
        <time>2019-11-18T11:02:06Z</time>
      </trkpt>
      <trkpt lat="43.96716" lon="5.1307">
        <ele>404.85</ele>
        <time>2019-11-18T11:02:25Z</time>
      </trkpt>
      <trkpt lat="43.96709" lon="5.13084">
        <ele>407.26</ele>
        <time>2019-11-18T11:02:42Z</time>
      </trkpt>
      <trkpt lat="43.96703" lon="5.13109">
        <ele>410.14</ele>
        <time>2019-11-18T11:03:07Z</time>
      </trkpt>
      <trkpt lat="43.967" lon="5.13132">
        <ele>413.02</ele>
        <time>2019-11-18T11:03:30Z</time>
      </trkpt>
      <trkpt lat="43.96691" lon="5.13157">
        <ele>415.91</ele>
        <time>2019-11-18T11:03:53Z</time>
      </trkpt>
      <trkpt lat="43.96679" lon="5.13174">
        <ele>418.79</ele>
        <time>2019-11-18T11:04:14Z</time>
      </trkpt>
      <trkpt lat="43.9667" lon="5.13191">
        <ele>421.68</ele>
        <time>2019-11-18T11:04:32Z</time>
      </trkpt>
      <trkpt lat="43.96659" lon="5.13207">
        <ele>425.04</ele>
        <time>2019-11-18T11:04:52Z</time>
      </trkpt>
      <trkpt lat="43.96655" lon="5.13214">
        <ele>426</ele>
        <time>2019-11-18T11:05:11Z</time>
      </trkpt>
      <trkpt lat="43.96657" lon="5.13216">
        <ele>426</ele>
        <time>2019-11-18T11:05:44Z</time>
      </trkpt>
      <trkpt lat="43.96659" lon="5.13216">
        <ele>426</ele>
        <time>2019-11-18T11:06:11Z</time>
      </trkpt>
      <trkpt lat="43.96661" lon="5.13216">
        <ele>426</ele>
        <time>2019-11-18T11:06:38Z</time>
      </trkpt>
      <trkpt lat="43.9666" lon="5.13216">
        <ele>426</ele>
        <time>2019-11-18T11:07:12Z</time>
      </trkpt>
      <trkpt lat="43.9666" lon="5.13215">
        <ele>426</ele>
        <time>2019-11-18T11:07:46Z</time>
      </trkpt>
      <trkpt lat="43.96659" lon="5.13214">
        <ele>426</ele>
        <time>2019-11-18T11:08:12Z</time>
      </trkpt>
      <trkpt lat="43.96655" lon="5.13221">
        <ele>426</ele>
        <time>2019-11-18T11:08:31Z</time>
      </trkpt>
      <trkpt lat="43.96647" lon="5.13234">
        <ele>426</ele>
        <time>2019-11-18T11:08:47Z</time>
      </trkpt>
      <trkpt lat="43.96644" lon="5.13242">
        <ele>428.89</ele>
        <time>2019-11-18T11:08:53Z</time>
      </trkpt>
      <trkpt lat="43.96631" lon="5.13254">
        <ele>430.81</ele>
        <time>2019-11-18T11:09:13Z</time>
      </trkpt>
      <trkpt lat="43.96616" lon="5.13267">
        <ele>431.77</ele>
        <time>2019-11-18T11:09:34Z</time>
      </trkpt>
      <trkpt lat="43.9661" lon="5.13272">
        <ele>432.73</ele>
        <time>2019-11-18T11:09:40Z</time>
      </trkpt>
      <trkpt lat="43.96598" lon="5.13286">
        <ele>434.17</ele>
        <time>2019-11-18T11:09:58Z</time>
      </trkpt>
      <trkpt lat="43.96598" lon="5.13288">
        <ele>434.65</ele>
        <time>2019-11-18T11:10:20Z</time>
      </trkpt>
      <trkpt lat="43.966" lon="5.13282">
        <ele>434.65</ele>
        <time>2019-11-18T11:10:47Z</time>
      </trkpt>
      <trkpt lat="43.96599" lon="5.1329">
        <ele>435.13</ele>
        <time>2019-11-18T11:11:06Z</time>
      </trkpt>
      <trkpt lat="43.96597" lon="5.13311">
        <ele>436.58</ele>
        <time>2019-11-18T11:11:22Z</time>
      </trkpt>
      <trkpt lat="43.96593" lon="5.13331">
        <ele>438.98</ele>
        <time>2019-11-18T11:11:42Z</time>
      </trkpt>
      <trkpt lat="43.96591" lon="5.13353">
        <ele>442.34</ele>
        <time>2019-11-18T11:12:02Z</time>
      </trkpt>
      <trkpt lat="43.96588" lon="5.13373">
        <ele>445.23</ele>
        <time>2019-11-18T11:12:20Z</time>
      </trkpt>
      <trkpt lat="43.9659" lon="5.13393">
        <ele>448.11</ele>
        <time>2019-11-18T11:12:41Z</time>
      </trkpt>
      <trkpt lat="43.9659" lon="5.13412">
        <ele>451</ele>
        <time>2019-11-18T11:12:59Z</time>
      </trkpt>
      <trkpt lat="43.9659" lon="5.13438">
        <ele>454.36</ele>
        <time>2019-11-18T11:13:24Z</time>
      </trkpt>
      <trkpt lat="43.96582" lon="5.13459">
        <ele>456.76</ele>
        <time>2019-11-18T11:13:47Z</time>
      </trkpt>
      <trkpt lat="43.9657" lon="5.13479">
        <ele>458.69</ele>
        <time>2019-11-18T11:14:07Z</time>
      </trkpt>
      <trkpt lat="43.9656" lon="5.13481">
        <ele>459.17</ele>
        <time>2019-11-18T11:14:17Z</time>
      </trkpt>
      <trkpt lat="43.96546" lon="5.13483">
        <ele>460.13</ele>
        <time>2019-11-18T11:14:35Z</time>
      </trkpt>
      <trkpt lat="43.96542" lon="5.13485">
        <ele>460.61</ele>
        <time>2019-11-18T11:14:50Z</time>
      </trkpt>
      <trkpt lat="43.96545" lon="5.13483">
        <ele>460.61</ele>
        <time>2019-11-18T11:15:18Z</time>
      </trkpt>
      <trkpt lat="43.96544" lon="5.13484">
        <ele>460.61</ele>
        <time>2019-11-18T11:15:47Z</time>
      </trkpt>
      <trkpt lat="43.96542" lon="5.13484">
        <ele>460.61</ele>
        <time>2019-11-18T11:16:15Z</time>
      </trkpt>
      <trkpt lat="43.96542" lon="5.13484">
        <ele>460.61</ele>
        <time>2019-11-18T11:16:38Z</time>
      </trkpt>
      <trkpt lat="43.9654" lon="5.13484">
        <ele>460.61</ele>
        <time>2019-11-18T11:17:05Z</time>
      </trkpt>
      <trkpt lat="43.96539" lon="5.13484">
        <ele>460.61</ele>
        <time>2019-11-18T11:17:33Z</time>
      </trkpt>
      <trkpt lat="43.96538" lon="5.13485">
        <ele>460.61</ele>
        <time>2019-11-18T11:17:58Z</time>
      </trkpt>
      <trkpt lat="43.96531" lon="5.13491">
        <ele>460.61</ele>
        <time>2019-11-18T11:18:24Z</time>
      </trkpt>
      <trkpt lat="43.96526" lon="5.13494">
        <ele>460.61</ele>
        <time>2019-11-18T11:18:30Z</time>
      </trkpt>
      <trkpt lat="43.9652" lon="5.13502">
        <ele>463.01</ele>
        <time>2019-11-18T11:18:38Z</time>
      </trkpt>
      <trkpt lat="43.9651" lon="5.13518">
        <ele>463.01</ele>
        <time>2019-11-18T11:18:56Z</time>
      </trkpt>
      <trkpt lat="43.96491" lon="5.13535">
        <ele>462.05</ele>
        <time>2019-11-18T11:19:16Z</time>
      </trkpt>
      <trkpt lat="43.96473" lon="5.13545">
        <ele>461.09</ele>
        <time>2019-11-18T11:19:33Z</time>
      </trkpt>
      <trkpt lat="43.96446" lon="5.13558">
        <ele>460.13</ele>
        <time>2019-11-18T11:19:55Z</time>
      </trkpt>
      <trkpt lat="43.96444" lon="5.1356">
        <ele>460.13</ele>
        <time>2019-11-18T11:19:57Z</time>
      </trkpt>
      <trkpt lat="43.96431" lon="5.13563">
        <ele>459.65</ele>
        <time>2019-11-18T11:20:17Z</time>
      </trkpt>
      <trkpt lat="43.96426" lon="5.13567">
        <ele>459.17</ele>
        <time>2019-11-18T11:20:37Z</time>
      </trkpt>
      <trkpt lat="43.96414" lon="5.13573">
        <ele>459.65</ele>
        <time>2019-11-18T11:20:54Z</time>
      </trkpt>
      <trkpt lat="43.96398" lon="5.1358">
        <ele>459.65</ele>
        <time>2019-11-18T11:21:14Z</time>
      </trkpt>
      <trkpt lat="43.96387" lon="5.13586">
        <ele>460.13</ele>
        <time>2019-11-18T11:21:34Z</time>
      </trkpt>
      <trkpt lat="43.96384" lon="5.13583">
        <ele>460.13</ele>
        <time>2019-11-18T11:21:57Z</time>
      </trkpt>
      <trkpt lat="43.96365" lon="5.13593">
        <ele>460.61</ele>
        <time>2019-11-18T11:22:15Z</time>
      </trkpt>
      <trkpt lat="43.96343" lon="5.13602">
        <ele>460.61</ele>
        <time>2019-11-18T11:22:35Z</time>
      </trkpt>
      <trkpt lat="43.96322" lon="5.13607">
        <ele>460.61</ele>
        <time>2019-11-18T11:22:55Z</time>
      </trkpt>
      <trkpt lat="43.96321" lon="5.13607">
        <ele>460.61</ele>
        <time>2019-11-18T11:22:56Z</time>
      </trkpt>
      <trkpt lat="43.96299" lon="5.13615">
        <ele>461.09</ele>
        <time>2019-11-18T11:23:18Z</time>
      </trkpt>
      <trkpt lat="43.96272" lon="5.13622">
        <ele>461.09</ele>
        <time>2019-11-18T11:23:41Z</time>
      </trkpt>
      <trkpt lat="43.96263" lon="5.13626">
        <ele>461.09</ele>
        <time>2019-11-18T11:23:50Z</time>
      </trkpt>
      <trkpt lat="43.96244" lon="5.13628">
        <ele>461.09</ele>
        <time>2019-11-18T11:24:08Z</time>
      </trkpt>
      <trkpt lat="43.96221" lon="5.13632">
        <ele>461.09</ele>
        <time>2019-11-18T11:24:27Z</time>
      </trkpt>
      <trkpt lat="43.962" lon="5.13636">
        <ele>461.09</ele>
        <time>2019-11-18T11:24:46Z</time>
      </trkpt>
      <trkpt lat="43.96181" lon="5.13643">
        <ele>460.61</ele>
        <time>2019-11-18T11:25:03Z</time>
      </trkpt>
      <trkpt lat="43.96163" lon="5.13649">
        <ele>459.65</ele>
        <time>2019-11-18T11:25:20Z</time>
      </trkpt>
      <trkpt lat="43.96162" lon="5.13648">
        <ele>459.17</ele>
        <time>2019-11-18T11:25:22Z</time>
      </trkpt>
      <trkpt lat="43.96159" lon="5.13648">
        <ele>459.17</ele>
        <time>2019-11-18T11:25:24Z</time>
      </trkpt>
      <trkpt lat="43.96142" lon="5.13649">
        <ele>455.8</ele>
        <time>2019-11-18T11:25:42Z</time>
      </trkpt>
      <trkpt lat="43.96126" lon="5.13652">
        <ele>452.92</ele>
        <time>2019-11-18T11:25:58Z</time>
      </trkpt>
      <trkpt lat="43.96111" lon="5.13658">
        <ele>450.03</ele>
        <time>2019-11-18T11:26:15Z</time>
      </trkpt>
      <trkpt lat="43.96107" lon="5.13664">
        <ele>448.59</ele>
        <time>2019-11-18T11:26:37Z</time>
      </trkpt>
      <trkpt lat="43.96105" lon="5.13665">
        <ele>448.11</ele>
        <time>2019-11-18T11:26:54Z</time>
      </trkpt>
      <trkpt lat="43.96106" lon="5.13666">
        <ele>447.15</ele>
        <time>2019-11-18T11:27:26Z</time>
      </trkpt>
      <trkpt lat="43.96103" lon="5.13666">
        <ele>446.67</ele>
        <time>2019-11-18T11:28:03Z</time>
      </trkpt>
      <trkpt lat="43.961" lon="5.1366">
        <ele>446.19</ele>
        <time>2019-11-18T11:28:42Z</time>
      </trkpt>
      <trkpt lat="43.96102" lon="5.13667">
        <ele>446.19</ele>
        <time>2019-11-18T11:29:16Z</time>
      </trkpt>
      <trkpt lat="43.96107" lon="5.1367">
        <ele>446.19</ele>
        <time>2019-11-18T11:29:42Z</time>
      </trkpt>
      <trkpt lat="43.96108" lon="5.13671">
        <ele>446.19</ele>
        <time>2019-11-18T11:30:11Z</time>
      </trkpt>
      <trkpt lat="43.96112" lon="5.13695">
        <ele>445.71</ele>
        <time>2019-11-18T11:30:29Z</time>
      </trkpt>
      <trkpt lat="43.96122" lon="5.1372">
        <ele>445.23</ele>
        <time>2019-11-18T11:30:48Z</time>
      </trkpt>
      <trkpt lat="43.96125" lon="5.13725">
        <ele>444.75</ele>
        <time>2019-11-18T11:30:51Z</time>
      </trkpt>
      <trkpt lat="43.96135" lon="5.13746">
        <ele>444.27</ele>
        <time>2019-11-18T11:31:08Z</time>
      </trkpt>
      <trkpt lat="43.96148" lon="5.13764">
        <ele>443.79</ele>
        <time>2019-11-18T11:31:25Z</time>
      </trkpt>
      <trkpt lat="43.96157" lon="5.13782">
        <ele>444.27</ele>
        <time>2019-11-18T11:31:41Z</time>
      </trkpt>
      <trkpt lat="43.96168" lon="5.13803">
        <ele>446.67</ele>
        <time>2019-11-18T11:31:59Z</time>
      </trkpt>
      <trkpt lat="43.96187" lon="5.13819">
        <ele>448.11</ele>
        <time>2019-11-18T11:32:17Z</time>
      </trkpt>
      <trkpt lat="43.96199" lon="5.13836">
        <ele>450.03</ele>
        <time>2019-11-18T11:32:33Z</time>
      </trkpt>
      <trkpt lat="43.96204" lon="5.13853">
        <ele>451.96</ele>
        <time>2019-11-18T11:32:50Z</time>
      </trkpt>
      <trkpt lat="43.9621" lon="5.13872">
        <ele>454.84</ele>
        <time>2019-11-18T11:33:09Z</time>
      </trkpt>
      <trkpt lat="43.96206" lon="5.13882">
        <ele>458.21</ele>
        <time>2019-11-18T11:33:25Z</time>
      </trkpt>
      <trkpt lat="43.96201" lon="5.13896">
        <ele>461.09</ele>
        <time>2019-11-18T11:33:45Z</time>
      </trkpt>
      <trkpt lat="43.96209" lon="5.13916">
        <ele>463.97</ele>
        <time>2019-11-18T11:34:08Z</time>
      </trkpt>
      <trkpt lat="43.96225" lon="5.13932">
        <ele>466.38</ele>
        <time>2019-11-18T11:34:31Z</time>
      </trkpt>
      <trkpt lat="43.96239" lon="5.13952">
        <ele>467.82</ele>
        <time>2019-11-18T11:34:56Z</time>
      </trkpt>
      <trkpt lat="43.96247" lon="5.13975">
        <ele>468.78</ele>
        <time>2019-11-18T11:35:16Z</time>
      </trkpt>
      <trkpt lat="43.96257" lon="5.13991">
        <ele>470.22</ele>
        <time>2019-11-18T11:35:36Z</time>
      </trkpt>
      <trkpt lat="43.96272" lon="5.14007">
        <ele>469.74</ele>
        <time>2019-11-18T11:35:55Z</time>
      </trkpt>
      <trkpt lat="43.96284" lon="5.14022">
        <ele>469.74</ele>
        <time>2019-11-18T11:36:12Z</time>
      </trkpt>
      <trkpt lat="43.96293" lon="5.14041">
        <ele>470.22</ele>
        <time>2019-11-18T11:36:29Z</time>
      </trkpt>
      <trkpt lat="43.963" lon="5.14058">
        <ele>468.3</ele>
        <time>2019-11-18T11:36:45Z</time>
      </trkpt>
      <trkpt lat="43.96297" lon="5.1407">
        <ele>466.38</ele>
        <time>2019-11-18T11:37:05Z</time>
      </trkpt>
      <trkpt lat="43.96297" lon="5.14087">
        <ele>463.49</ele>
        <time>2019-11-18T11:37:18Z</time>
      </trkpt>
      <trkpt lat="43.9629" lon="5.14102">
        <ele>460.13</ele>
        <time>2019-11-18T11:37:32Z</time>
      </trkpt>
      <trkpt lat="43.96288" lon="5.14115">
        <ele>457.24</ele>
        <time>2019-11-18T11:37:42Z</time>
      </trkpt>
      <trkpt lat="43.9628" lon="5.1413">
        <ele>454.36</ele>
        <time>2019-11-18T11:38:02Z</time>
      </trkpt>
      <trkpt lat="43.96279" lon="5.14134">
        <ele>453.88</ele>
        <time>2019-11-18T11:38:34Z</time>
      </trkpt>
      <trkpt lat="43.96267" lon="5.14146">
        <ele>451.48</ele>
        <time>2019-11-18T11:38:53Z</time>
      </trkpt>
      <trkpt lat="43.9626" lon="5.14158">
        <ele>450.03</ele>
        <time>2019-11-18T11:39:07Z</time>
      </trkpt>
      <trkpt lat="43.96251" lon="5.14167">
        <ele>448.59</ele>
        <time>2019-11-18T11:39:21Z</time>
      </trkpt>
      <trkpt lat="43.96243" lon="5.14179">
        <ele>447.63</ele>
        <time>2019-11-18T11:39:34Z</time>
      </trkpt>
      <trkpt lat="43.96226" lon="5.14187">
        <ele>447.63</ele>
        <time>2019-11-18T11:39:48Z</time>
      </trkpt>
      <trkpt lat="43.96214" lon="5.14198">
        <ele>447.15</ele>
        <time>2019-11-18T11:40:01Z</time>
      </trkpt>
      <trkpt lat="43.96208" lon="5.14221">
        <ele>445.23</ele>
        <time>2019-11-18T11:40:20Z</time>
      </trkpt>
      <trkpt lat="43.96211" lon="5.14235">
        <ele>442.34</ele>
        <time>2019-11-18T11:40:34Z</time>
      </trkpt>
      <trkpt lat="43.96219" lon="5.14249">
        <ele>441.38</ele>
        <time>2019-11-18T11:40:50Z</time>
      </trkpt>
      <trkpt lat="43.96211" lon="5.14255">
        <ele>444.75</ele>
        <time>2019-11-18T11:41:09Z</time>
      </trkpt>
      <trkpt lat="43.96214" lon="5.14266">
        <ele>447.63</ele>
        <time>2019-11-18T11:41:20Z</time>
      </trkpt>
      <trkpt lat="43.96214" lon="5.14273">
        <ele>451</ele>
        <time>2019-11-18T11:41:33Z</time>
      </trkpt>
      <trkpt lat="43.9621" lon="5.1428">
        <ele>453.88</ele>
        <time>2019-11-18T11:41:49Z</time>
      </trkpt>
      <trkpt lat="43.96214" lon="5.14284">
        <ele>455.8</ele>
        <time>2019-11-18T11:42:03Z</time>
      </trkpt>
      <trkpt lat="43.96216" lon="5.14284">
        <ele>455.32</ele>
        <time>2019-11-18T11:42:25Z</time>
      </trkpt>
      <trkpt lat="43.96223" lon="5.14281">
        <ele>455.32</ele>
        <time>2019-11-18T11:42:54Z</time>
      </trkpt>
      <trkpt lat="43.96222" lon="5.14277">
        <ele>455.8</ele>
        <time>2019-11-18T11:43:18Z</time>
      </trkpt>
      <trkpt lat="43.96221" lon="5.14283">
        <ele>454.36</ele>
        <time>2019-11-18T11:43:39Z</time>
      </trkpt>
      <trkpt lat="43.96224" lon="5.14285">
        <ele>454.84</ele>
        <time>2019-11-18T11:44:06Z</time>
      </trkpt>
      <trkpt lat="43.96219" lon="5.14292">
        <ele>454.36</ele>
        <time>2019-11-18T11:44:26Z</time>
      </trkpt>
      <trkpt lat="43.96217" lon="5.14309">
        <ele>454.36</ele>
        <time>2019-11-18T11:44:47Z</time>
      </trkpt>
      <trkpt lat="43.96218" lon="5.14323">
        <ele>454.36</ele>
        <time>2019-11-18T11:45:08Z</time>
      </trkpt>
      <trkpt lat="43.96225" lon="5.14332">
        <ele>454.36</ele>
        <time>2019-11-18T11:45:36Z</time>
      </trkpt>
      <trkpt lat="43.96227" lon="5.14352">
        <ele>454.36</ele>
        <time>2019-11-18T11:45:54Z</time>
      </trkpt>
      <trkpt lat="43.96224" lon="5.14357">
        <ele>451.96</ele>
        <time>2019-11-18T11:45:59Z</time>
      </trkpt>
      <trkpt lat="43.96225" lon="5.14366">
        <ele>450.52</ele>
        <time>2019-11-18T11:46:17Z</time>
      </trkpt>
      <trkpt lat="43.96221" lon="5.14367">
        <ele>450.03</ele>
        <time>2019-11-18T11:46:45Z</time>
      </trkpt>
      <trkpt lat="43.9622" lon="5.14366">
        <ele>450.03</ele>
        <time>2019-11-18T11:47:22Z</time>
      </trkpt>
      <trkpt lat="43.96223" lon="5.14365">
        <ele>450.03</ele>
        <time>2019-11-18T11:47:58Z</time>
      </trkpt>
      <trkpt lat="43.96221" lon="5.14366">
        <ele>450.03</ele>
        <time>2019-11-18T11:48:13Z</time>
      </trkpt>
      <trkpt lat="43.96229" lon="5.14369">
        <ele>450.03</ele>
        <time>2019-11-18T11:48:40Z</time>
      </trkpt>
      <trkpt lat="43.96214" lon="5.1438">
        <ele>451</ele>
        <time>2019-11-18T11:49:09Z</time>
      </trkpt>
      <trkpt lat="43.9622" lon="5.14375">
        <ele>451</ele>
        <time>2019-11-18T11:49:36Z</time>
      </trkpt>
      <trkpt lat="43.96223" lon="5.1437">
        <ele>451</ele>
        <time>2019-11-18T11:49:47Z</time>
      </trkpt>
      <trkpt lat="43.9623" lon="5.14366">
        <ele>448.59</ele>
        <time>2019-11-18T11:50:08Z</time>
      </trkpt>
      <trkpt lat="43.96234" lon="5.1436">
        <ele>445.23</ele>
        <time>2019-11-18T11:50:23Z</time>
      </trkpt>
      <trkpt lat="43.96241" lon="5.14342">
        <ele>442.34</ele>
        <time>2019-11-18T11:50:39Z</time>
      </trkpt>
      <trkpt lat="43.96247" lon="5.14325">
        <ele>438.98</ele>
        <time>2019-11-18T11:50:54Z</time>
      </trkpt>
      <trkpt lat="43.96252" lon="5.1431">
        <ele>436.1</ele>
        <time>2019-11-18T11:51:11Z</time>
      </trkpt>
      <trkpt lat="43.9626" lon="5.14296">
        <ele>432.73</ele>
        <time>2019-11-18T11:51:27Z</time>
      </trkpt>
      <trkpt lat="43.96264" lon="5.14276">
        <ele>430.33</ele>
        <time>2019-11-18T11:51:44Z</time>
      </trkpt>
      <trkpt lat="43.9628" lon="5.14253">
        <ele>427.92</ele>
        <time>2019-11-18T11:52:05Z</time>
      </trkpt>
      <trkpt lat="43.96293" lon="5.14233">
        <ele>425.04</ele>
        <time>2019-11-18T11:52:25Z</time>
      </trkpt>
      <trkpt lat="43.96297" lon="5.14232">
        <ele>424.56</ele>
        <time>2019-11-18T11:52:27Z</time>
      </trkpt>
      <trkpt lat="43.9631" lon="5.14229">
        <ele>421.68</ele>
        <time>2019-11-18T11:52:44Z</time>
      </trkpt>
      <trkpt lat="43.96322" lon="5.14221">
        <ele>418.79</ele>
        <time>2019-11-18T11:52:59Z</time>
      </trkpt>
      <trkpt lat="43.96332" lon="5.14216">
        <ele>415.43</ele>
        <time>2019-11-18T11:53:11Z</time>
      </trkpt>
      <trkpt lat="43.96342" lon="5.14218">
        <ele>412.54</ele>
        <time>2019-11-18T11:53:29Z</time>
      </trkpt>
      <trkpt lat="43.9635" lon="5.1422">
        <ele>409.18</ele>
        <time>2019-11-18T11:53:42Z</time>
      </trkpt>
      <trkpt lat="43.96361" lon="5.14208">
        <ele>405.81</ele>
        <time>2019-11-18T11:54:00Z</time>
      </trkpt>
      <trkpt lat="43.96376" lon="5.142">
        <ele>403.41</ele>
        <time>2019-11-18T11:54:18Z</time>
      </trkpt>
      <trkpt lat="43.96385" lon="5.14191">
        <ele>400.05</ele>
        <time>2019-11-18T11:54:33Z</time>
      </trkpt>
      <trkpt lat="43.96392" lon="5.14174">
        <ele>397.16</ele>
        <time>2019-11-18T11:54:48Z</time>
      </trkpt>
      <trkpt lat="43.96403" lon="5.14167">
        <ele>394.28</ele>
        <time>2019-11-18T11:55:03Z</time>
      </trkpt>
      <trkpt lat="43.9642" lon="5.14163">
        <ele>391.39</ele>
        <time>2019-11-18T11:55:21Z</time>
      </trkpt>
      <trkpt lat="43.96438" lon="5.14162">
        <ele>388.03</ele>
        <time>2019-11-18T11:55:41Z</time>
      </trkpt>
      <trkpt lat="43.96457" lon="5.14154">
        <ele>386.59</ele>
        <time>2019-11-18T11:56:03Z</time>
      </trkpt>
      <trkpt lat="43.96468" lon="5.14142">
        <ele>385.63</ele>
        <time>2019-11-18T11:56:22Z</time>
      </trkpt>
      <trkpt lat="43.96469" lon="5.14132">
        <ele>385.63</ele>
        <time>2019-11-18T11:56:36Z</time>
      </trkpt>
      <trkpt lat="43.96483" lon="5.1411">
        <ele>384.66</ele>
        <time>2019-11-18T11:56:54Z</time>
      </trkpt>
      <trkpt lat="43.96497" lon="5.14091">
        <ele>382.74</ele>
        <time>2019-11-18T11:57:10Z</time>
      </trkpt>
      <trkpt lat="43.96501" lon="5.1407">
        <ele>381.78</ele>
        <time>2019-11-18T11:57:25Z</time>
      </trkpt>
      <trkpt lat="43.9651" lon="5.14049">
        <ele>381.3</ele>
        <time>2019-11-18T11:57:41Z</time>
      </trkpt>
      <trkpt lat="43.96514" lon="5.14029">
        <ele>378.9</ele>
        <time>2019-11-18T11:57:57Z</time>
      </trkpt>
      <trkpt lat="43.96515" lon="5.14021">
        <ele>378.42</ele>
        <time>2019-11-18T11:58:03Z</time>
      </trkpt>
      <trkpt lat="43.96515" lon="5.14004">
        <ele>376.97</ele>
        <time>2019-11-18T11:58:15Z</time>
      </trkpt>
      <trkpt lat="43.96517" lon="5.13991">
        <ele>375.53</ele>
        <time>2019-11-18T11:58:28Z</time>
      </trkpt>
      <trkpt lat="43.96522" lon="5.13973">
        <ele>372.17</ele>
        <time>2019-11-18T11:58:41Z</time>
      </trkpt>
      <trkpt lat="43.96528" lon="5.13959">
        <ele>369.28</ele>
        <time>2019-11-18T11:58:54Z</time>
      </trkpt>
      <trkpt lat="43.96533" lon="5.1395">
        <ele>367.84</ele>
        <time>2019-11-18T11:59:04Z</time>
      </trkpt>
      <trkpt lat="43.96534" lon="5.13945">
        <ele>367.84</ele>
        <time>2019-11-18T11:59:07Z</time>
      </trkpt>
      <trkpt lat="43.96545" lon="5.1393">
        <ele>365.44</ele>
        <time>2019-11-18T11:59:25Z</time>
      </trkpt>
      <trkpt lat="43.96552" lon="5.13918">
        <ele>364</ele>
        <time>2019-11-18T11:59:35Z</time>
      </trkpt>
      <trkpt lat="43.96549" lon="5.13904">
        <ele>362.55</ele>
        <time>2019-11-18T11:59:50Z</time>
      </trkpt>
      <trkpt lat="43.96554" lon="5.13889">
        <ele>360.63</ele>
        <time>2019-11-18T12:00:05Z</time>
      </trkpt>
      <trkpt lat="43.96558" lon="5.13884">
        <ele>360.15</ele>
        <time>2019-11-18T12:00:18Z</time>
      </trkpt>
      <trkpt lat="43.9655" lon="5.13884">
        <ele>360.15</ele>
        <time>2019-11-18T12:00:30Z</time>
      </trkpt>
      <trkpt lat="43.96549" lon="5.13883">
        <ele>359.19</ele>
        <time>2019-11-18T12:01:00Z</time>
      </trkpt>
      <trkpt lat="43.96547" lon="5.1388">
        <ele>359.19</ele>
        <time>2019-11-18T12:01:32Z</time>
      </trkpt>
      <trkpt lat="43.9655" lon="5.13882">
        <ele>359.19</ele>
        <time>2019-11-18T12:01:56Z</time>
      </trkpt>
      <trkpt lat="43.96547" lon="5.1388">
        <ele>359.19</ele>
        <time>2019-11-18T12:02:46Z</time>
      </trkpt>
      <trkpt lat="43.96547" lon="5.13879">
        <ele>359.19</ele>
        <time>2019-11-18T12:03:17Z</time>
      </trkpt>
      <trkpt lat="43.96545" lon="5.13881">
        <ele>359.19</ele>
        <time>2019-11-18T12:03:45Z</time>
      </trkpt>
      <trkpt lat="43.96546" lon="5.13879">
        <ele>359.19</ele>
        <time>2019-11-18T12:04:18Z</time>
      </trkpt>
      <trkpt lat="43.9655" lon="5.13884">
        <ele>359.19</ele>
        <time>2019-11-18T12:04:51Z</time>
      </trkpt>
      <trkpt lat="43.96554" lon="5.13883">
        <ele>359.19</ele>
        <time>2019-11-18T12:05:27Z</time>
      </trkpt>
      <trkpt lat="43.96546" lon="5.13879">
        <ele>359.19</ele>
        <time>2019-11-18T12:05:57Z</time>
      </trkpt>
      <trkpt lat="43.96551" lon="5.13883">
        <ele>359.19</ele>
        <time>2019-11-18T12:06:51Z</time>
      </trkpt>
      <trkpt lat="43.96554" lon="5.13883">
        <ele>359.19</ele>
        <time>2019-11-18T12:07:53Z</time>
      </trkpt>
      <trkpt lat="43.96554" lon="5.13883">
        <ele>359.19</ele>
        <time>2019-11-18T12:07:56Z</time>
      </trkpt>
      <trkpt lat="43.96551" lon="5.13882">
        <ele>359.19</ele>
        <time>2019-11-18T12:08:27Z</time>
      </trkpt>
      <trkpt lat="43.96548" lon="5.13881">
        <ele>359.19</ele>
        <time>2019-11-18T12:09:00Z</time>
      </trkpt>
      <trkpt lat="43.96551" lon="5.13884">
        <ele>359.19</ele>
        <time>2019-11-18T12:09:28Z</time>
      </trkpt>
      <trkpt lat="43.96553" lon="5.13889">
        <ele>360.15</ele>
        <time>2019-11-18T12:09:33Z</time>
      </trkpt>
      <trkpt lat="43.96549" lon="5.13883">
        <ele>360.63</ele>
        <time>2019-11-18T12:10:11Z</time>
      </trkpt>
      <trkpt lat="43.9655" lon="5.13882">
        <ele>360.63</ele>
        <time>2019-11-18T12:10:37Z</time>
      </trkpt>
      <trkpt lat="43.96549" lon="5.13877">
        <ele>360.63</ele>
        <time>2019-11-18T12:11:07Z</time>
      </trkpt>
      <trkpt lat="43.9655" lon="5.13885">
        <ele>360.15</ele>
        <time>2019-11-18T12:11:35Z</time>
      </trkpt>
      <trkpt lat="43.96546" lon="5.1388">
        <ele>360.15</ele>
        <time>2019-11-18T12:12:08Z</time>
      </trkpt>
      <trkpt lat="43.96549" lon="5.13885">
        <ele>360.15</ele>
        <time>2019-11-18T12:12:40Z</time>
      </trkpt>
      <trkpt lat="43.9655" lon="5.13886">
        <ele>360.15</ele>
        <time>2019-11-18T12:13:12Z</time>
      </trkpt>
      <trkpt lat="43.96547" lon="5.13875">
        <ele>360.15</ele>
        <time>2019-11-18T12:13:44Z</time>
      </trkpt>
      <trkpt lat="43.96544" lon="5.13872">
        <ele>360.15</ele>
        <time>2019-11-18T12:14:14Z</time>
      </trkpt>
      <trkpt lat="43.9654" lon="5.13868">
        <ele>360.15</ele>
        <time>2019-11-18T12:14:51Z</time>
      </trkpt>
      <trkpt lat="43.96539" lon="5.13868">
        <ele>360.15</ele>
        <time>2019-11-18T12:15:26Z</time>
      </trkpt>
      <trkpt lat="43.96546" lon="5.13879">
        <ele>360.15</ele>
        <time>2019-11-18T12:16:06Z</time>
      </trkpt>
      <trkpt lat="43.96541" lon="5.13879">
        <ele>360.15</ele>
        <time>2019-11-18T12:17:05Z</time>
      </trkpt>
      <trkpt lat="43.96544" lon="5.13882">
        <ele>360.15</ele>
        <time>2019-11-18T12:18:03Z</time>
      </trkpt>
      <trkpt lat="43.9655" lon="5.13888">
        <ele>360.15</ele>
        <time>2019-11-18T12:18:30Z</time>
      </trkpt>
      <trkpt lat="43.96546" lon="5.13881">
        <ele>360.15</ele>
        <time>2019-11-18T12:19:06Z</time>
      </trkpt>
      <trkpt lat="43.96544" lon="5.13878">
        <ele>360.15</ele>
        <time>2019-11-18T12:19:45Z</time>
      </trkpt>
      <trkpt lat="43.96541" lon="5.13873">
        <ele>360.15</ele>
        <time>2019-11-18T12:20:21Z</time>
      </trkpt>
      <trkpt lat="43.96543" lon="5.13879">
        <ele>360.15</ele>
        <time>2019-11-18T12:20:53Z</time>
      </trkpt>
      <trkpt lat="43.96547" lon="5.13883">
        <ele>360.15</ele>
        <time>2019-11-18T12:21:29Z</time>
      </trkpt>
      <trkpt lat="43.96547" lon="5.1388">
        <ele>360.15</ele>
        <time>2019-11-18T12:22:00Z</time>
      </trkpt>
      <trkpt lat="43.96537" lon="5.13877">
        <ele>360.15</ele>
        <time>2019-11-18T12:22:49Z</time>
      </trkpt>
      <trkpt lat="43.96546" lon="5.13886">
        <ele>358.71</ele>
        <time>2019-11-18T12:23:32Z</time>
      </trkpt>
      <trkpt lat="43.96551" lon="5.13887">
        <ele>358.71</ele>
        <time>2019-11-18T12:24:07Z</time>
      </trkpt>
      <trkpt lat="43.9655" lon="5.13888">
        <ele>358.71</ele>
        <time>2019-11-18T12:24:52Z</time>
      </trkpt>
      <trkpt lat="43.96553" lon="5.13883">
        <ele>358.71</ele>
        <time>2019-11-18T12:25:26Z</time>
      </trkpt>
      <trkpt lat="43.96555" lon="5.13884">
        <ele>358.71</ele>
        <time>2019-11-18T12:25:57Z</time>
      </trkpt>
      <trkpt lat="43.96554" lon="5.13879">
        <ele>358.71</ele>
        <time>2019-11-18T12:26:33Z</time>
      </trkpt>
      <trkpt lat="43.96552" lon="5.13878">
        <ele>358.71</ele>
        <time>2019-11-18T12:27:10Z</time>
      </trkpt>
      <trkpt lat="43.96554" lon="5.13871">
        <ele>358.71</ele>
        <time>2019-11-18T12:27:42Z</time>
      </trkpt>
      <trkpt lat="43.9656" lon="5.13876">
        <ele>358.71</ele>
        <time>2019-11-18T12:28:08Z</time>
      </trkpt>
      <trkpt lat="43.96563" lon="5.13882">
        <ele>358.71</ele>
        <time>2019-11-18T12:28:15Z</time>
      </trkpt>
      <trkpt lat="43.96566" lon="5.13892">
        <ele>358.23</ele>
        <time>2019-11-18T12:28:27Z</time>
      </trkpt>
      <trkpt lat="43.96555" lon="5.13873">
        <ele>358.23</ele>
        <time>2019-11-18T12:29:03Z</time>
      </trkpt>
      <trkpt lat="43.96554" lon="5.1387">
        <ele>358.23</ele>
        <time>2019-11-18T12:29:33Z</time>
      </trkpt>
      <trkpt lat="43.9655" lon="5.13869">
        <ele>358.23</ele>
        <time>2019-11-18T12:30:09Z</time>
      </trkpt>
      <trkpt lat="43.96552" lon="5.13879">
        <ele>358.23</ele>
        <time>2019-11-18T12:30:40Z</time>
      </trkpt>
      <trkpt lat="43.9655" lon="5.13881">
        <ele>358.23</ele>
        <time>2019-11-18T12:31:09Z</time>
      </trkpt>
      <trkpt lat="43.96551" lon="5.13881">
        <ele>358.23</ele>
        <time>2019-11-18T12:31:41Z</time>
      </trkpt>
      <trkpt lat="43.96552" lon="5.13879">
        <ele>358.23</ele>
        <time>2019-11-18T12:32:15Z</time>
      </trkpt>
      <trkpt lat="43.9655" lon="5.13877">
        <ele>358.23</ele>
        <time>2019-11-18T12:32:49Z</time>
      </trkpt>
      <trkpt lat="43.96549" lon="5.13878">
        <ele>358.23</ele>
        <time>2019-11-18T12:33:20Z</time>
      </trkpt>
      <trkpt lat="43.96554" lon="5.13885">
        <ele>358.23</ele>
        <time>2019-11-18T12:33:53Z</time>
      </trkpt>
      <trkpt lat="43.96548" lon="5.13879">
        <ele>358.23</ele>
        <time>2019-11-18T12:34:45Z</time>
      </trkpt>
      <trkpt lat="43.96548" lon="5.13877">
        <ele>358.23</ele>
        <time>2019-11-18T12:35:15Z</time>
      </trkpt>
      <trkpt lat="43.96549" lon="5.1388">
        <ele>358.23</ele>
        <time>2019-11-18T12:35:43Z</time>
      </trkpt>
      <trkpt lat="43.9655" lon="5.13885">
        <ele>358.23</ele>
        <time>2019-11-18T12:36:10Z</time>
      </trkpt>
      <trkpt lat="43.96551" lon="5.1388">
        <ele>358.23</ele>
        <time>2019-11-18T12:36:31Z</time>
      </trkpt>
      <trkpt lat="43.96553" lon="5.13879">
        <ele>358.23</ele>
        <time>2019-11-18T12:36:53Z</time>
      </trkpt>
      <trkpt lat="43.96553" lon="5.13878">
        <ele>358.23</ele>
        <time>2019-11-18T12:37:25Z</time>
      </trkpt>
      <trkpt lat="43.96551" lon="5.13878">
        <ele>358.23</ele>
        <time>2019-11-18T12:37:53Z</time>
      </trkpt>
      <trkpt lat="43.96553" lon="5.13881">
        <ele>358.23</ele>
        <time>2019-11-18T12:38:30Z</time>
      </trkpt>
      <trkpt lat="43.96554" lon="5.13884">
        <ele>358.23</ele>
        <time>2019-11-18T12:39:03Z</time>
      </trkpt>
      <trkpt lat="43.96541" lon="5.13894">
        <ele>358.23</ele>
        <time>2019-11-18T12:39:26Z</time>
      </trkpt>
      <trkpt lat="43.96545" lon="5.13908">
        <ele>361.59</ele>
        <time>2019-11-18T12:39:38Z</time>
      </trkpt>
      <trkpt lat="43.96545" lon="5.13909">
        <ele>361.59</ele>
        <time>2019-11-18T12:39:39Z</time>
      </trkpt>
      <trkpt lat="43.9654" lon="5.13929">
        <ele>363.04</ele>
        <time>2019-11-18T12:39:58Z</time>
      </trkpt>
      <trkpt lat="43.9653" lon="5.13943">
        <ele>364.48</ele>
        <time>2019-11-18T12:40:16Z</time>
      </trkpt>
      <trkpt lat="43.96527" lon="5.1395">
        <ele>365.44</ele>
        <time>2019-11-18T12:40:24Z</time>
      </trkpt>
      <trkpt lat="43.96524" lon="5.13971">
        <ele>367.36</ele>
        <time>2019-11-18T12:40:42Z</time>
      </trkpt>
      <trkpt lat="43.9652" lon="5.13995">
        <ele>369.76</ele>
        <time>2019-11-18T12:41:03Z</time>
      </trkpt>
      <trkpt lat="43.96514" lon="5.14013">
        <ele>372.17</ele>
        <time>2019-11-18T12:41:19Z</time>
      </trkpt>
      <trkpt lat="43.96511" lon="5.14025">
        <ele>373.61</ele>
        <time>2019-11-18T12:41:29Z</time>
      </trkpt>
      <trkpt lat="43.96505" lon="5.1404">
        <ele>375.05</ele>
        <time>2019-11-18T12:41:42Z</time>
      </trkpt>
      <trkpt lat="43.965" lon="5.1406">
        <ele>377.45</ele>
        <time>2019-11-18T12:42:00Z</time>
      </trkpt>
      <trkpt lat="43.96497" lon="5.14076">
        <ele>378.9</ele>
        <time>2019-11-18T12:42:13Z</time>
      </trkpt>
      <trkpt lat="43.9649" lon="5.14099">
        <ele>380.82</ele>
        <time>2019-11-18T12:42:32Z</time>
      </trkpt>
      <trkpt lat="43.96481" lon="5.14112">
        <ele>382.26</ele>
        <time>2019-11-18T12:42:47Z</time>
      </trkpt>
      <trkpt lat="43.96479" lon="5.14115">
        <ele>382.26</ele>
        <time>2019-11-18T12:42:50Z</time>
      </trkpt>
      <trkpt lat="43.96467" lon="5.14132">
        <ele>383.7</ele>
        <time>2019-11-18T12:43:08Z</time>
      </trkpt>
      <trkpt lat="43.96472" lon="5.14139">
        <ele>385.15</ele>
        <time>2019-11-18T12:43:24Z</time>
      </trkpt>
      <trkpt lat="43.9648" lon="5.14137">
        <ele>385.63</ele>
        <time>2019-11-18T12:43:42Z</time>
      </trkpt>
      <trkpt lat="43.96487" lon="5.1413">
        <ele>386.11</ele>
        <time>2019-11-18T12:43:49Z</time>
      </trkpt>
      <trkpt lat="43.96501" lon="5.14122">
        <ele>386.59</ele>
        <time>2019-11-18T12:44:04Z</time>
      </trkpt>
      <trkpt lat="43.96511" lon="5.14111">
        <ele>386.11</ele>
        <time>2019-11-18T12:44:13Z</time>
      </trkpt>
      <trkpt lat="43.96524" lon="5.14096">
        <ele>386.11</ele>
        <time>2019-11-18T12:44:28Z</time>
      </trkpt>
      <trkpt lat="43.9653" lon="5.14081">
        <ele>386.59</ele>
        <time>2019-11-18T12:44:39Z</time>
      </trkpt>
      <trkpt lat="43.96539" lon="5.14058">
        <ele>387.07</ele>
        <time>2019-11-18T12:44:55Z</time>
      </trkpt>
      <trkpt lat="43.96549" lon="5.14044">
        <ele>388.03</ele>
        <time>2019-11-18T12:45:09Z</time>
      </trkpt>
      <trkpt lat="43.9656" lon="5.14021">
        <ele>388.99</ele>
        <time>2019-11-18T12:45:29Z</time>
      </trkpt>
      <trkpt lat="43.96571" lon="5.14001">
        <ele>390.43</ele>
        <time>2019-11-18T12:45:47Z</time>
      </trkpt>
      <trkpt lat="43.96582" lon="5.13982">
        <ele>390.43</ele>
        <time>2019-11-18T12:46:04Z</time>
      </trkpt>
      <trkpt lat="43.96591" lon="5.1396">
        <ele>392.84</ele>
        <time>2019-11-18T12:46:22Z</time>
      </trkpt>
      <trkpt lat="43.96604" lon="5.1395">
        <ele>394.28</ele>
        <time>2019-11-18T12:46:39Z</time>
      </trkpt>
      <trkpt lat="43.96626" lon="5.13946">
        <ele>396.2</ele>
        <time>2019-11-18T12:47:00Z</time>
      </trkpt>
      <trkpt lat="43.9663" lon="5.13947">
        <ele>396.68</ele>
        <time>2019-11-18T12:47:20Z</time>
      </trkpt>
      <trkpt lat="43.96649" lon="5.13945">
        <ele>397.64</ele>
        <time>2019-11-18T12:47:39Z</time>
      </trkpt>
      <trkpt lat="43.96664" lon="5.13943">
        <ele>399.57</ele>
        <time>2019-11-18T12:47:57Z</time>
      </trkpt>
      <trkpt lat="43.96687" lon="5.13934">
        <ele>399.57</ele>
        <time>2019-11-18T12:48:20Z</time>
      </trkpt>
      <trkpt lat="43.96691" lon="5.13934">
        <ele>399.57</ele>
        <time>2019-11-18T12:48:23Z</time>
      </trkpt>
      <trkpt lat="43.96713" lon="5.13935">
        <ele>398.6</ele>
        <time>2019-11-18T12:48:43Z</time>
      </trkpt>
      <trkpt lat="43.96726" lon="5.13925">
        <ele>399.08</ele>
        <time>2019-11-18T12:49:04Z</time>
      </trkpt>
      <trkpt lat="43.96746" lon="5.13923">
        <ele>399.57</ele>
        <time>2019-11-18T12:49:25Z</time>
      </trkpt>
      <trkpt lat="43.96756" lon="5.13917">
        <ele>399.57</ele>
        <time>2019-11-18T12:49:43Z</time>
      </trkpt>
      <trkpt lat="43.96759" lon="5.13913">
        <ele>399.57</ele>
        <time>2019-11-18T12:50:07Z</time>
      </trkpt>
      <trkpt lat="43.9676" lon="5.13917">
        <ele>399.57</ele>
        <time>2019-11-18T12:50:34Z</time>
      </trkpt>
      <trkpt lat="43.9676" lon="5.13913">
        <ele>399.57</ele>
        <time>2019-11-18T12:50:58Z</time>
      </trkpt>
      <trkpt lat="43.96761" lon="5.13911">
        <ele>399.57</ele>
        <time>2019-11-18T12:51:23Z</time>
      </trkpt>
      <trkpt lat="43.96771" lon="5.13913">
        <ele>399.57</ele>
        <time>2019-11-18T12:51:51Z</time>
      </trkpt>
      <trkpt lat="43.96783" lon="5.13914">
        <ele>402.93</ele>
        <time>2019-11-18T12:52:04Z</time>
      </trkpt>
      <trkpt lat="43.96801" lon="5.13915">
        <ele>405.33</ele>
        <time>2019-11-18T12:52:22Z</time>
      </trkpt>
      <trkpt lat="43.96816" lon="5.13924">
        <ele>406.77</ele>
        <time>2019-11-18T12:52:39Z</time>
      </trkpt>
      <trkpt lat="43.96819" lon="5.13924">
        <ele>407.26</ele>
        <time>2019-11-18T12:52:41Z</time>
      </trkpt>
      <trkpt lat="43.96833" lon="5.13925">
        <ele>408.22</ele>
        <time>2019-11-18T12:52:56Z</time>
      </trkpt>
      <trkpt lat="43.96849" lon="5.13926">
        <ele>410.14</ele>
        <time>2019-11-18T12:53:16Z</time>
      </trkpt>
      <trkpt lat="43.96865" lon="5.1392">
        <ele>411.58</ele>
        <time>2019-11-18T12:53:33Z</time>
      </trkpt>
      <trkpt lat="43.9688" lon="5.13917">
        <ele>413.02</ele>
        <time>2019-11-18T12:53:51Z</time>
      </trkpt>
      <trkpt lat="43.969" lon="5.13917">
        <ele>414.47</ele>
        <time>2019-11-18T12:54:12Z</time>
      </trkpt>
      <trkpt lat="43.96914" lon="5.13912">
        <ele>414.95</ele>
        <time>2019-11-18T12:54:28Z</time>
      </trkpt>
      <trkpt lat="43.96931" lon="5.13904">
        <ele>416.39</ele>
        <time>2019-11-18T12:54:47Z</time>
      </trkpt>
      <trkpt lat="43.96932" lon="5.13904">
        <ele>416.39</ele>
        <time>2019-11-18T12:55:10Z</time>
      </trkpt>
      <trkpt lat="43.96932" lon="5.13901">
        <ele>416.39</ele>
        <time>2019-11-18T12:55:30Z</time>
      </trkpt>
      <trkpt lat="43.96933" lon="5.13905">
        <ele>416.39</ele>
        <time>2019-11-18T12:55:51Z</time>
      </trkpt>
      <trkpt lat="43.96948" lon="5.13897">
        <ele>415.91</ele>
        <time>2019-11-18T12:56:10Z</time>
      </trkpt>
      <trkpt lat="43.96949" lon="5.13897">
        <ele>415.43</ele>
        <time>2019-11-18T12:56:11Z</time>
      </trkpt>
      <trkpt lat="43.96964" lon="5.13889">
        <ele>415.43</ele>
        <time>2019-11-18T12:56:27Z</time>
      </trkpt>
      <trkpt lat="43.96984" lon="5.13879">
        <ele>414.47</ele>
        <time>2019-11-18T12:56:45Z</time>
      </trkpt>
      <trkpt lat="43.9699" lon="5.13877">
        <ele>413.98</ele>
        <time>2019-11-18T12:56:51Z</time>
      </trkpt>
      <trkpt lat="43.97008" lon="5.13871">
        <ele>413.5</ele>
        <time>2019-11-18T12:57:07Z</time>
      </trkpt>
      <trkpt lat="43.97022" lon="5.13866">
        <ele>413.02</ele>
        <time>2019-11-18T12:57:24Z</time>
      </trkpt>
      <trkpt lat="43.97032" lon="5.13863">
        <ele>412.06</ele>
        <time>2019-11-18T12:57:39Z</time>
      </trkpt>
      <trkpt lat="43.9703" lon="5.13862">
        <ele>412.54</ele>
        <time>2019-11-18T12:57:58Z</time>
      </trkpt>
      <trkpt lat="43.97048" lon="5.13856">
        <ele>412.06</ele>
        <time>2019-11-18T12:58:18Z</time>
      </trkpt>
      <trkpt lat="43.97061" lon="5.13854">
        <ele>411.58</ele>
        <time>2019-11-18T12:58:29Z</time>
      </trkpt>
      <trkpt lat="43.97065" lon="5.13855">
        <ele>411.58</ele>
        <time>2019-11-18T12:58:33Z</time>
      </trkpt>
      <trkpt lat="43.97081" lon="5.13861">
        <ele>410.14</ele>
        <time>2019-11-18T12:58:51Z</time>
      </trkpt>
      <trkpt lat="43.97094" lon="5.13866">
        <ele>408.22</ele>
        <time>2019-11-18T12:59:06Z</time>
      </trkpt>
      <trkpt lat="43.97113" lon="5.13862">
        <ele>406.29</ele>
        <time>2019-11-18T12:59:26Z</time>
      </trkpt>
      <trkpt lat="43.97114" lon="5.13862">
        <ele>406.29</ele>
        <time>2019-11-18T12:59:27Z</time>
      </trkpt>
      <trkpt lat="43.97117" lon="5.13864">
        <ele>405.81</ele>
        <time>2019-11-18T12:59:31Z</time>
      </trkpt>
      <trkpt lat="43.97128" lon="5.13883">
        <ele>404.37</ele>
        <time>2019-11-18T12:59:48Z</time>
      </trkpt>
      <trkpt lat="43.97139" lon="5.13898">
        <ele>401.49</ele>
        <time>2019-11-18T13:00:06Z</time>
      </trkpt>
      <trkpt lat="43.97147" lon="5.13905">
        <ele>399.08</ele>
        <time>2019-11-18T13:00:25Z</time>
      </trkpt>
      <trkpt lat="43.97159" lon="5.13891">
        <ele>396.68</ele>
        <time>2019-11-18T13:00:45Z</time>
      </trkpt>
      <trkpt lat="43.97169" lon="5.13869">
        <ele>394.76</ele>
        <time>2019-11-18T13:01:07Z</time>
      </trkpt>
      <trkpt lat="43.97163" lon="5.13851">
        <ele>394.28</ele>
        <time>2019-11-18T13:01:18Z</time>
      </trkpt>
      <trkpt lat="43.97161" lon="5.13846">
        <ele>393.8</ele>
        <time>2019-11-18T13:01:21Z</time>
      </trkpt>
      <trkpt lat="43.9715" lon="5.13831">
        <ele>393.8</ele>
        <time>2019-11-18T13:01:36Z</time>
      </trkpt>
      <trkpt lat="43.97142" lon="5.13811">
        <ele>392.84</ele>
        <time>2019-11-18T13:01:52Z</time>
      </trkpt>
      <trkpt lat="43.97134" lon="5.13798">
        <ele>392.84</ele>
        <time>2019-11-18T13:02:04Z</time>
      </trkpt>
      <trkpt lat="43.97124" lon="5.13777">
        <ele>391.87</ele>
        <time>2019-11-18T13:02:24Z</time>
      </trkpt>
      <trkpt lat="43.9713" lon="5.13759">
        <ele>389.47</ele>
        <time>2019-11-18T13:02:40Z</time>
      </trkpt>
      <trkpt lat="43.97146" lon="5.1375">
        <ele>387.07</ele>
        <time>2019-11-18T13:03:00Z</time>
      </trkpt>
      <trkpt lat="43.97153" lon="5.13756">
        <ele>384.66</ele>
        <time>2019-11-18T13:03:19Z</time>
      </trkpt>
      <trkpt lat="43.97157" lon="5.13747">
        <ele>383.7</ele>
        <time>2019-11-18T13:03:40Z</time>
      </trkpt>
      <trkpt lat="43.97163" lon="5.13735">
        <ele>380.82</ele>
        <time>2019-11-18T13:03:55Z</time>
      </trkpt>
      <trkpt lat="43.97176" lon="5.13737">
        <ele>377.45</ele>
        <time>2019-11-18T13:04:11Z</time>
      </trkpt>
      <trkpt lat="43.9719" lon="5.13737">
        <ele>374.57</ele>
        <time>2019-11-18T13:04:27Z</time>
      </trkpt>
      <trkpt lat="43.97205" lon="5.13738">
        <ele>371.21</ele>
        <time>2019-11-18T13:04:44Z</time>
      </trkpt>
      <trkpt lat="43.97213" lon="5.13736">
        <ele>369.76</ele>
        <time>2019-11-18T13:04:52Z</time>
      </trkpt>
      <trkpt lat="43.9723" lon="5.13737">
        <ele>366.4</ele>
        <time>2019-11-18T13:05:11Z</time>
      </trkpt>
      <trkpt lat="43.97238" lon="5.13735">
        <ele>364.48</ele>
        <time>2019-11-18T13:05:22Z</time>
      </trkpt>
      <trkpt lat="43.97236" lon="5.13738">
        <ele>364</ele>
        <time>2019-11-18T13:05:52Z</time>
      </trkpt>
      <trkpt lat="43.97253" lon="5.13738">
        <ele>361.59</ele>
        <time>2019-11-18T13:06:20Z</time>
      </trkpt>
      <trkpt lat="43.97273" lon="5.13732">
        <ele>359.19</ele>
        <time>2019-11-18T13:06:39Z</time>
      </trkpt>
      <trkpt lat="43.97286" lon="5.13729">
        <ele>356.31</ele>
        <time>2019-11-18T13:06:58Z</time>
      </trkpt>
      <trkpt lat="43.97309" lon="5.13717">
        <ele>353.42</ele>
        <time>2019-11-18T13:07:20Z</time>
      </trkpt>
      <trkpt lat="43.9733" lon="5.13712">
        <ele>351.5</ele>
        <time>2019-11-18T13:07:42Z</time>
      </trkpt>
      <trkpt lat="43.9734" lon="5.13707">
        <ele>350.06</ele>
        <time>2019-11-18T13:07:53Z</time>
      </trkpt>
      <trkpt lat="43.97349" lon="5.13705">
        <ele>349.1</ele>
        <time>2019-11-18T13:08:00Z</time>
      </trkpt>
      <trkpt lat="43.97366" lon="5.13701">
        <ele>346.21</ele>
        <time>2019-11-18T13:08:17Z</time>
      </trkpt>
      <trkpt lat="43.97377" lon="5.13698">
        <ele>344.29</ele>
        <time>2019-11-18T13:08:28Z</time>
      </trkpt>
      <trkpt lat="43.97399" lon="5.13688">
        <ele>340.92</ele>
        <time>2019-11-18T13:08:45Z</time>
      </trkpt>
      <trkpt lat="43.97415" lon="5.13685">
        <ele>337.56</ele>
        <time>2019-11-18T13:09:00Z</time>
      </trkpt>
      <trkpt lat="43.97432" lon="5.13683">
        <ele>334.68</ele>
        <time>2019-11-18T13:09:16Z</time>
      </trkpt>
      <trkpt lat="43.97451" lon="5.13682">
        <ele>331.31</ele>
        <time>2019-11-18T13:09:32Z</time>
      </trkpt>
      <trkpt lat="43.97463" lon="5.13679">
        <ele>328.43</ele>
        <time>2019-11-18T13:09:45Z</time>
      </trkpt>
      <trkpt lat="43.97476" lon="5.13671">
        <ele>325.54</ele>
        <time>2019-11-18T13:10:01Z</time>
      </trkpt>
      <trkpt lat="43.97478" lon="5.13672">
        <ele>324.1</ele>
        <time>2019-11-18T13:10:26Z</time>
      </trkpt>
      <trkpt lat="43.97483" lon="5.13668">
        <ele>323.62</ele>
        <time>2019-11-18T13:10:36Z</time>
      </trkpt>
      <trkpt lat="43.97497" lon="5.13659">
        <ele>320.74</ele>
        <time>2019-11-18T13:10:49Z</time>
      </trkpt>
      <trkpt lat="43.97507" lon="5.13649">
        <ele>318.33</ele>
        <time>2019-11-18T13:11:04Z</time>
      </trkpt>
      <trkpt lat="43.97521" lon="5.13635">
        <ele>314.97</ele>
        <time>2019-11-18T13:11:18Z</time>
      </trkpt>
      <trkpt lat="43.97535" lon="5.13616">
        <ele>311.6</ele>
        <time>2019-11-18T13:11:34Z</time>
      </trkpt>
      <trkpt lat="43.97552" lon="5.13598">
        <ele>308.72</ele>
        <time>2019-11-18T13:11:50Z</time>
      </trkpt>
      <trkpt lat="43.97558" lon="5.13582">
        <ele>306.8</ele>
        <time>2019-11-18T13:12:01Z</time>
      </trkpt>
      <trkpt lat="43.97562" lon="5.13574">
        <ele>306.32</ele>
        <time>2019-11-18T13:12:07Z</time>
      </trkpt>
      <trkpt lat="43.97575" lon="5.13552">
        <ele>303.91</ele>
        <time>2019-11-18T13:12:23Z</time>
      </trkpt>
      <trkpt lat="43.97577" lon="5.13549">
        <ele>303.43</ele>
        <time>2019-11-18T13:12:25Z</time>
      </trkpt>
      <trkpt lat="43.97586" lon="5.13526">
        <ele>301.03</ele>
        <time>2019-11-18T13:12:42Z</time>
      </trkpt>
      <trkpt lat="43.97596" lon="5.13502">
        <ele>298.15</ele>
        <time>2019-11-18T13:13:00Z</time>
      </trkpt>
      <trkpt lat="43.97606" lon="5.13478">
        <ele>294.78</ele>
        <time>2019-11-18T13:13:17Z</time>
      </trkpt>
      <trkpt lat="43.97606" lon="5.13477">
        <ele>294.78</ele>
        <time>2019-11-18T13:13:18Z</time>
      </trkpt>
      <trkpt lat="43.97609" lon="5.13469">
        <ele>293.82</ele>
        <time>2019-11-18T13:13:24Z</time>
      </trkpt>
      <trkpt lat="43.9762" lon="5.13446">
        <ele>291.42</ele>
        <time>2019-11-18T13:13:41Z</time>
      </trkpt>
      <trkpt lat="43.97633" lon="5.13427">
        <ele>289.49</ele>
        <time>2019-11-18T13:13:58Z</time>
      </trkpt>
      <trkpt lat="43.9765" lon="5.13418">
        <ele>287.09</ele>
        <time>2019-11-18T13:14:15Z</time>
      </trkpt>
      <trkpt lat="43.97652" lon="5.1342">
        <ele>285.65</ele>
        <time>2019-11-18T13:14:37Z</time>
      </trkpt>
      <trkpt lat="43.97652" lon="5.13418">
        <ele>287.09</ele>
        <time>2019-11-18T13:15:06Z</time>
      </trkpt>
      <trkpt lat="43.97652" lon="5.1342">
        <ele>286.61</ele>
        <time>2019-11-18T13:15:31Z</time>
      </trkpt>
      <trkpt lat="43.97653" lon="5.13422">
        <ele>286.61</ele>
        <time>2019-11-18T13:15:36Z</time>
      </trkpt>
      <trkpt lat="43.97654" lon="5.13425">
        <ele>286.61</ele>
        <time>2019-11-18T13:15:38Z</time>
      </trkpt>
      <trkpt lat="43.97655" lon="5.13446">
        <ele>286.61</ele>
        <time>2019-11-18T13:15:53Z</time>
      </trkpt>
      <trkpt lat="43.97657" lon="5.13453">
        <ele>286.61</ele>
        <time>2019-11-18T13:15:58Z</time>
      </trkpt>
      <trkpt lat="43.9766" lon="5.13456">
        <ele>287.09</ele>
        <time>2019-11-18T13:16:02Z</time>
      </trkpt>
      <trkpt lat="43.97678" lon="5.13462">
        <ele>288.05</ele>
        <time>2019-11-18T13:16:19Z</time>
      </trkpt>
      <trkpt lat="43.97681" lon="5.13458">
        <ele>288.05</ele>
        <time>2019-11-18T13:16:23Z</time>
      </trkpt>
      <trkpt lat="43.97686" lon="5.1345">
        <ele>288.05</ele>
        <time>2019-11-18T13:16:28Z</time>
      </trkpt>
      <trkpt lat="43.97696" lon="5.13425">
        <ele>288.05</ele>
        <time>2019-11-18T13:16:45Z</time>
      </trkpt>
      <trkpt lat="43.9771" lon="5.13404">
        <ele>287.57</ele>
        <time>2019-11-18T13:17:02Z</time>
      </trkpt>
      <trkpt lat="43.97722" lon="5.13387">
        <ele>287.57</ele>
        <time>2019-11-18T13:17:17Z</time>
      </trkpt>
      <trkpt lat="43.97738" lon="5.1337">
        <ele>287.57</ele>
        <time>2019-11-18T13:17:34Z</time>
      </trkpt>
      <trkpt lat="43.97757" lon="5.13356">
        <ele>288.05</ele>
        <time>2019-11-18T13:17:51Z</time>
      </trkpt>
      <trkpt lat="43.97777" lon="5.13352">
        <ele>288.53</ele>
        <time>2019-11-18T13:18:09Z</time>
      </trkpt>
      <trkpt lat="43.97789" lon="5.13348">
        <ele>289.01</ele>
        <time>2019-11-18T13:18:20Z</time>
      </trkpt>
      <trkpt lat="43.97794" lon="5.13346">
        <ele>289.01</ele>
        <time>2019-11-18T13:18:23Z</time>
      </trkpt>
      <trkpt lat="43.97811" lon="5.13339">
        <ele>289.97</ele>
        <time>2019-11-18T13:18:39Z</time>
      </trkpt>
      <trkpt lat="43.97831" lon="5.13332">
        <ele>290.46</ele>
        <time>2019-11-18T13:18:57Z</time>
      </trkpt>
      <trkpt lat="43.97849" lon="5.13328">
        <ele>291.42</ele>
        <time>2019-11-18T13:19:13Z</time>
      </trkpt>
      <trkpt lat="43.97871" lon="5.13322">
        <ele>291.9</ele>
        <time>2019-11-18T13:19:31Z</time>
      </trkpt>
      <trkpt lat="43.97889" lon="5.13318">
        <ele>291.9</ele>
        <time>2019-11-18T13:19:48Z</time>
      </trkpt>
      <trkpt lat="43.97906" lon="5.13316">
        <ele>292.38</ele>
        <time>2019-11-18T13:20:07Z</time>
      </trkpt>
      <trkpt lat="43.97923" lon="5.13318">
        <ele>292.38</ele>
        <time>2019-11-18T13:20:31Z</time>
      </trkpt>
      <trkpt lat="43.97923" lon="5.13321">
        <ele>292.38</ele>
        <time>2019-11-18T13:20:52Z</time>
      </trkpt>
      <trkpt lat="43.97926" lon="5.13319">
        <ele>292.38</ele>
        <time>2019-11-18T13:22:36Z</time>
      </trkpt>
      <trkpt lat="43.97929" lon="5.13325">
        <ele>291.42</ele>
        <time>2019-11-18T13:22:41Z</time>
      </trkpt>
      <trkpt lat="43.97942" lon="5.13337">
        <ele>289.49</ele>
        <time>2019-11-18T13:23:00Z</time>
      </trkpt>
      <trkpt lat="43.97948" lon="5.13335">
        <ele>287.57</ele>
        <time>2019-11-18T13:23:21Z</time>
      </trkpt>
      <trkpt lat="43.9796" lon="5.1334">
        <ele>284.21</ele>
        <time>2019-11-18T13:23:38Z</time>
      </trkpt>
      <trkpt lat="43.9797" lon="5.13338">
        <ele>281.32</ele>
        <time>2019-11-18T13:23:55Z</time>
      </trkpt>
      <trkpt lat="43.97981" lon="5.13338">
        <ele>278.44</ele>
        <time>2019-11-18T13:24:11Z</time>
      </trkpt>
      <trkpt lat="43.97994" lon="5.13333">
        <ele>275.07</ele>
        <time>2019-11-18T13:24:28Z</time>
      </trkpt>
      <trkpt lat="43.98003" lon="5.13326">
        <ele>272.19</ele>
        <time>2019-11-18T13:24:45Z</time>
      </trkpt>
      <trkpt lat="43.98016" lon="5.13318">
        <ele>269.31</ele>
        <time>2019-11-18T13:25:08Z</time>
      </trkpt>
      <trkpt lat="43.98027" lon="5.13307">
        <ele>266.9</ele>
        <time>2019-11-18T13:25:28Z</time>
      </trkpt>
      <trkpt lat="43.98036" lon="5.13302">
        <ele>263.54</ele>
        <time>2019-11-18T13:25:47Z</time>
      </trkpt>
      <trkpt lat="43.98045" lon="5.13293">
        <ele>261.62</ele>
        <time>2019-11-18T13:26:09Z</time>
      </trkpt>
      <trkpt lat="43.98047" lon="5.13295">
        <ele>261.62</ele>
        <time>2019-11-18T13:26:38Z</time>
      </trkpt>
      <trkpt lat="43.98058" lon="5.13302">
        <ele>261.14</ele>
        <time>2019-11-18T13:26:56Z</time>
      </trkpt>
      <trkpt lat="43.98076" lon="5.13297">
        <ele>261.62</ele>
        <time>2019-11-18T13:27:13Z</time>
      </trkpt>
      <trkpt lat="43.98093" lon="5.13285">
        <ele>263.54</ele>
        <time>2019-11-18T13:27:31Z</time>
      </trkpt>
      <trkpt lat="43.98108" lon="5.13267">
        <ele>266.42</ele>
        <time>2019-11-18T13:27:53Z</time>
      </trkpt>
      <trkpt lat="43.98125" lon="5.13272">
        <ele>269.79</ele>
        <time>2019-11-18T13:28:15Z</time>
      </trkpt>
      <trkpt lat="43.98143" lon="5.13268">
        <ele>271.71</ele>
        <time>2019-11-18T13:28:36Z</time>
      </trkpt>
      <trkpt lat="43.98159" lon="5.1326">
        <ele>273.63</ele>
        <time>2019-11-18T13:28:56Z</time>
      </trkpt>
      <trkpt lat="43.98169" lon="5.13253">
        <ele>275.07</ele>
        <time>2019-11-18T13:29:16Z</time>
      </trkpt>
      <trkpt lat="43.98169" lon="5.13254">
        <ele>275.07</ele>
        <time>2019-11-18T13:29:48Z</time>
      </trkpt>
      <trkpt lat="43.98183" lon="5.13233">
        <ele>274.11</ele>
        <time>2019-11-18T13:30:08Z</time>
      </trkpt>
      <trkpt lat="43.98188" lon="5.13223">
        <ele>274.59</ele>
        <time>2019-11-18T13:30:16Z</time>
      </trkpt>
      <trkpt lat="43.98189" lon="5.1322">
        <ele>274.59</ele>
        <time>2019-11-18T13:30:18Z</time>
      </trkpt>
      <trkpt lat="43.98201" lon="5.13196">
        <ele>274.59</ele>
        <time>2019-11-18T13:30:34Z</time>
      </trkpt>
      <trkpt lat="43.98211" lon="5.13178">
        <ele>274.59</ele>
        <time>2019-11-18T13:30:48Z</time>
      </trkpt>
      <trkpt lat="43.98222" lon="5.13166">
        <ele>274.11</ele>
        <time>2019-11-18T13:31:02Z</time>
      </trkpt>
      <trkpt lat="43.98224" lon="5.13165">
        <ele>274.11</ele>
        <time>2019-11-18T13:31:04Z</time>
      </trkpt>
      <trkpt lat="43.98227" lon="5.13162">
        <ele>274.11</ele>
        <time>2019-11-18T13:31:07Z</time>
      </trkpt>
      <trkpt lat="43.98231" lon="5.13139">
        <ele>271.71</ele>
        <time>2019-11-18T13:31:23Z</time>
      </trkpt>
      <trkpt lat="43.98243" lon="5.13116">
        <ele>271.23</ele>
        <time>2019-11-18T13:31:43Z</time>
      </trkpt>
      <trkpt lat="43.98251" lon="5.13106">
        <ele>270.75</ele>
        <time>2019-11-18T13:31:57Z</time>
      </trkpt>
      <trkpt lat="43.98251" lon="5.13105">
        <ele>270.75</ele>
        <time>2019-11-18T13:32:27Z</time>
      </trkpt>
      <trkpt lat="43.98251" lon="5.13102">
        <ele>270.75</ele>
        <time>2019-11-18T13:32:56Z</time>
      </trkpt>
      <trkpt lat="43.98252" lon="5.13101">
        <ele>270.75</ele>
        <time>2019-11-18T13:33:24Z</time>
      </trkpt>
      <trkpt lat="43.98252" lon="5.13101">
        <ele>270.75</ele>
        <time>2019-11-18T13:33:59Z</time>
      </trkpt>
      <trkpt lat="43.98256" lon="5.13097">
        <ele>270.75</ele>
        <time>2019-11-18T13:34:30Z</time>
      </trkpt>
      <trkpt lat="43.98268" lon="5.13085">
        <ele>270.27</ele>
        <time>2019-11-18T13:34:45Z</time>
      </trkpt>
      <trkpt lat="43.98278" lon="5.13075">
        <ele>270.27</ele>
        <time>2019-11-18T13:34:56Z</time>
      </trkpt>
      <trkpt lat="43.98288" lon="5.1305">
        <ele>270.27</ele>
        <time>2019-11-18T13:35:13Z</time>
      </trkpt>
      <trkpt lat="43.98294" lon="5.13044">
        <ele>269.79</ele>
        <time>2019-11-18T13:35:19Z</time>
      </trkpt>
      <trkpt lat="43.98308" lon="5.13027">
        <ele>269.79</ele>
        <time>2019-11-18T13:35:35Z</time>
      </trkpt>
      <trkpt lat="43.98319" lon="5.13002">
        <ele>267.86</ele>
        <time>2019-11-18T13:35:53Z</time>
      </trkpt>
      <trkpt lat="43.98321" lon="5.12998">
        <ele>267.38</ele>
        <time>2019-11-18T13:35:56Z</time>
      </trkpt>
      <trkpt lat="43.98334" lon="5.12989">
        <ele>266.42</ele>
        <time>2019-11-18T13:36:10Z</time>
      </trkpt>
      <trkpt lat="43.98343" lon="5.12968">
        <ele>265.46</ele>
        <time>2019-11-18T13:36:26Z</time>
      </trkpt>
      <trkpt lat="43.98344" lon="5.12963">
        <ele>264.98</ele>
        <time>2019-11-18T13:36:48Z</time>
      </trkpt>
      <trkpt lat="43.98343" lon="5.12958">
        <ele>264.98</ele>
        <time>2019-11-18T13:37:08Z</time>
      </trkpt>
      <trkpt lat="43.98344" lon="5.12955">
        <ele>264.98</ele>
        <time>2019-11-18T13:37:10Z</time>
      </trkpt>
      <trkpt lat="43.98355" lon="5.12928">
        <ele>263.54</ele>
        <time>2019-11-18T13:37:29Z</time>
      </trkpt>
      <trkpt lat="43.9835" lon="5.12923">
        <ele>262.58</ele>
        <time>2019-11-18T13:37:40Z</time>
      </trkpt>
      <trkpt lat="43.98345" lon="5.1292">
        <ele>262.1</ele>
        <time>2019-11-18T13:37:45Z</time>
      </trkpt>
      <trkpt lat="43.98346" lon="5.129">
        <ele>260.65</ele>
        <time>2019-11-18T13:38:01Z</time>
      </trkpt>
      <trkpt lat="43.98359" lon="5.12885">
        <ele>260.17</ele>
        <time>2019-11-18T13:38:19Z</time>
      </trkpt>
      <trkpt lat="43.98362" lon="5.12884">
        <ele>260.17</ele>
        <time>2019-11-18T13:38:40Z</time>
      </trkpt>
      <trkpt lat="43.98363" lon="5.12882">
        <ele>260.17</ele>
        <time>2019-11-18T13:39:08Z</time>
      </trkpt>
      <trkpt lat="43.98372" lon="5.12878">
        <ele>260.17</ele>
        <time>2019-11-18T13:39:17Z</time>
      </trkpt>
      <trkpt lat="43.98387" lon="5.12878">
        <ele>260.65</ele>
        <time>2019-11-18T13:39:32Z</time>
      </trkpt>
      <trkpt lat="43.984" lon="5.12865">
        <ele>261.62</ele>
        <time>2019-11-18T13:39:50Z</time>
      </trkpt>
      <trkpt lat="43.98401" lon="5.12864">
        <ele>261.62</ele>
        <time>2019-11-18T13:39:51Z</time>
      </trkpt>
      <trkpt lat="43.98416" lon="5.12835">
        <ele>261.62</ele>
        <time>2019-11-18T13:40:12Z</time>
      </trkpt>
      <trkpt lat="43.98431" lon="5.12825">
        <ele>261.14</ele>
        <time>2019-11-18T13:40:28Z</time>
      </trkpt>
      <trkpt lat="43.98447" lon="5.12812">
        <ele>260.65</ele>
        <time>2019-11-18T13:40:44Z</time>
      </trkpt>
      <trkpt lat="43.98448" lon="5.12809">
        <ele>260.65</ele>
        <time>2019-11-18T13:40:46Z</time>
      </trkpt>
      <trkpt lat="43.98444" lon="5.12786">
        <ele>260.65</ele>
        <time>2019-11-18T13:41:03Z</time>
      </trkpt>
      <trkpt lat="43.98441" lon="5.1277">
        <ele>260.65</ele>
        <time>2019-11-18T13:41:14Z</time>
      </trkpt>
      <trkpt lat="43.9843" lon="5.12752">
        <ele>261.14</ele>
        <time>2019-11-18T13:41:29Z</time>
      </trkpt>
      <trkpt lat="43.98428" lon="5.12749">
        <ele>261.14</ele>
        <time>2019-11-18T13:41:31Z</time>
      </trkpt>
      <trkpt lat="43.98419" lon="5.12731">
        <ele>261.62</ele>
        <time>2019-11-18T13:41:47Z</time>
      </trkpt>
      <trkpt lat="43.98416" lon="5.12723">
        <ele>262.1</ele>
        <time>2019-11-18T13:41:54Z</time>
      </trkpt>
      <trkpt lat="43.98416" lon="5.12704">
        <ele>263.54</ele>
        <time>2019-11-18T13:42:10Z</time>
      </trkpt>
      <trkpt lat="43.98416" lon="5.12702">
        <ele>263.54</ele>
        <time>2019-11-18T13:42:11Z</time>
      </trkpt>
      <trkpt lat="43.98419" lon="5.12677">
        <ele>264.02</ele>
        <time>2019-11-18T13:42:28Z</time>
      </trkpt>
      <trkpt lat="43.98431" lon="5.12651">
        <ele>264.5</ele>
        <time>2019-11-18T13:42:49Z</time>
      </trkpt>
      <trkpt lat="43.98443" lon="5.12636">
        <ele>264.98</ele>
        <time>2019-11-18T13:43:06Z</time>
      </trkpt>
      <trkpt lat="43.98448" lon="5.12612">
        <ele>266.42</ele>
        <time>2019-11-18T13:43:25Z</time>
      </trkpt>
      <trkpt lat="43.98455" lon="5.12594">
        <ele>268.35</ele>
        <time>2019-11-18T13:43:41Z</time>
      </trkpt>
      <trkpt lat="43.98461" lon="5.12571">
        <ele>269.79</ele>
        <time>2019-11-18T13:44:00Z</time>
      </trkpt>
      <trkpt lat="43.98463" lon="5.12558">
        <ele>270.75</ele>
        <time>2019-11-18T13:44:16Z</time>
      </trkpt>
      <trkpt lat="43.98472" lon="5.12544">
        <ele>271.71</ele>
        <time>2019-11-18T13:44:36Z</time>
      </trkpt>
      <trkpt lat="43.98473" lon="5.12527">
        <ele>272.67</ele>
        <time>2019-11-18T13:44:55Z</time>
      </trkpt>
      <trkpt lat="43.98477" lon="5.12518">
        <ele>273.15</ele>
        <time>2019-11-18T13:45:06Z</time>
      </trkpt>
      <trkpt lat="43.98487" lon="5.12509">
        <ele>273.63</ele>
        <time>2019-11-18T13:45:22Z</time>
      </trkpt>
      <trkpt lat="43.98504" lon="5.12505">
        <ele>272.67</ele>
        <time>2019-11-18T13:45:40Z</time>
      </trkpt>
      <trkpt lat="43.98509" lon="5.12506">
        <ele>272.67</ele>
        <time>2019-11-18T13:45:44Z</time>
      </trkpt>
      <trkpt lat="43.98524" lon="5.12506">
        <ele>273.15</ele>
        <time>2019-11-18T13:46:00Z</time>
      </trkpt>
      <trkpt lat="43.98543" lon="5.12499">
        <ele>274.11</ele>
        <time>2019-11-18T13:46:20Z</time>
      </trkpt>
      <trkpt lat="43.98546" lon="5.12478">
        <ele>276.04</ele>
        <time>2019-11-18T13:46:39Z</time>
      </trkpt>
      <trkpt lat="43.98545" lon="5.12476">
        <ele>276.04</ele>
        <time>2019-11-18T13:46:41Z</time>
      </trkpt>
      <trkpt lat="43.98539" lon="5.12463">
        <ele>276.52</ele>
        <time>2019-11-18T13:46:53Z</time>
      </trkpt>
      <trkpt lat="43.98531" lon="5.1244">
        <ele>277</ele>
        <time>2019-11-18T13:47:12Z</time>
      </trkpt>
      <trkpt lat="43.9853" lon="5.12436">
        <ele>277</ele>
        <time>2019-11-18T13:47:15Z</time>
      </trkpt>
      <trkpt lat="43.9853" lon="5.12433">
        <ele>277</ele>
        <time>2019-11-18T13:47:17Z</time>
      </trkpt>
      <trkpt lat="43.98525" lon="5.12411">
        <ele>277.96</ele>
        <time>2019-11-18T13:47:36Z</time>
      </trkpt>
      <trkpt lat="43.98525" lon="5.1241">
        <ele>278.44</ele>
        <time>2019-11-18T13:47:54Z</time>
      </trkpt>
      <trkpt lat="43.98522" lon="5.12413">
        <ele>277.96</ele>
        <time>2019-11-18T13:48:13Z</time>
      </trkpt>
      <trkpt lat="43.98524" lon="5.12413">
        <ele>277.48</ele>
        <time>2019-11-18T13:48:28Z</time>
      </trkpt>
      <trkpt lat="43.98521" lon="5.12411">
        <ele>277.48</ele>
        <time>2019-11-18T13:49:03Z</time>
      </trkpt>
      <trkpt lat="43.9852" lon="5.1241">
        <ele>277.96</ele>
        <time>2019-11-18T13:49:28Z</time>
      </trkpt>
      <trkpt lat="43.98525" lon="5.12411">
        <ele>277.96</ele>
        <time>2019-11-18T13:49:34Z</time>
      </trkpt>
      <trkpt lat="43.98529" lon="5.12401">
        <ele>278.44</ele>
        <time>2019-11-18T13:49:49Z</time>
      </trkpt>
      <trkpt lat="43.98534" lon="5.12393">
        <ele>278.44</ele>
        <time>2019-11-18T13:49:57Z</time>
      </trkpt>
      <trkpt lat="43.98545" lon="5.1237">
        <ele>278.92</ele>
        <time>2019-11-18T13:50:13Z</time>
      </trkpt>
      <trkpt lat="43.98555" lon="5.12356">
        <ele>278.44</ele>
        <time>2019-11-18T13:50:25Z</time>
      </trkpt>
      <trkpt lat="43.98563" lon="5.12343">
        <ele>278.92</ele>
        <time>2019-11-18T13:50:36Z</time>
      </trkpt>
      <trkpt lat="43.98572" lon="5.12327">
        <ele>278.92</ele>
        <time>2019-11-18T13:50:49Z</time>
      </trkpt>
      <trkpt lat="43.9858" lon="5.12307">
        <ele>278.44</ele>
        <time>2019-11-18T13:51:03Z</time>
      </trkpt>
      <trkpt lat="43.98583" lon="5.12279">
        <ele>278.44</ele>
        <time>2019-11-18T13:51:20Z</time>
      </trkpt>
      <trkpt lat="43.98586" lon="5.1226">
        <ele>278.92</ele>
        <time>2019-11-18T13:51:36Z</time>
      </trkpt>
      <trkpt lat="43.98594" lon="5.12236">
        <ele>279.4</ele>
        <time>2019-11-18T13:51:53Z</time>
      </trkpt>
      <trkpt lat="43.98599" lon="5.12222">
        <ele>278.92</ele>
        <time>2019-11-18T13:52:02Z</time>
      </trkpt>
      <trkpt lat="43.98602" lon="5.12198">
        <ele>277.96</ele>
        <time>2019-11-18T13:52:18Z</time>
      </trkpt>
      <trkpt lat="43.98602" lon="5.12192">
        <ele>277.96</ele>
        <time>2019-11-18T13:52:22Z</time>
      </trkpt>
      <trkpt lat="43.98604" lon="5.12166">
        <ele>277.96</ele>
        <time>2019-11-18T13:52:39Z</time>
      </trkpt>
      <trkpt lat="43.98596" lon="5.12159">
        <ele>277</ele>
        <time>2019-11-18T13:52:58Z</time>
      </trkpt>
      <trkpt lat="43.98596" lon="5.12157">
        <ele>277</ele>
        <time>2019-11-18T13:53:30Z</time>
      </trkpt>
      <trkpt lat="43.98596" lon="5.1216">
        <ele>277</ele>
        <time>2019-11-18T13:54:01Z</time>
      </trkpt>
      <trkpt lat="43.98598" lon="5.12161">
        <ele>277</ele>
        <time>2019-11-18T13:54:28Z</time>
      </trkpt>
      <trkpt lat="43.98607" lon="5.12165">
        <ele>277.96</ele>
        <time>2019-11-18T13:54:45Z</time>
      </trkpt>
      <trkpt lat="43.98613" lon="5.12143">
        <ele>277.96</ele>
        <time>2019-11-18T13:55:02Z</time>
      </trkpt>
      <trkpt lat="43.9862" lon="5.12125">
        <ele>277.96</ele>
        <time>2019-11-18T13:55:16Z</time>
      </trkpt>
      <trkpt lat="43.98633" lon="5.12111">
        <ele>277.48</ele>
        <time>2019-11-18T13:55:30Z</time>
      </trkpt>
      <trkpt lat="43.98644" lon="5.12103">
        <ele>277</ele>
        <time>2019-11-18T13:55:43Z</time>
      </trkpt>
      <trkpt lat="43.98652" lon="5.12105">
        <ele>277</ele>
        <time>2019-11-18T13:55:51Z</time>
      </trkpt>
      <trkpt lat="43.98667" lon="5.12103">
        <ele>276.52</ele>
        <time>2019-11-18T13:56:10Z</time>
      </trkpt>
      <trkpt lat="43.98671" lon="5.12104">
        <ele>276.04</ele>
        <time>2019-11-18T13:56:14Z</time>
      </trkpt>
      <trkpt lat="43.98679" lon="5.12104">
        <ele>276.04</ele>
        <time>2019-11-18T13:56:23Z</time>
      </trkpt>
      <trkpt lat="43.98699" lon="5.12104">
        <ele>275.07</ele>
        <time>2019-11-18T13:56:41Z</time>
      </trkpt>
      <trkpt lat="43.98716" lon="5.12096">
        <ele>274.59</ele>
        <time>2019-11-18T13:56:59Z</time>
      </trkpt>
      <trkpt lat="43.98734" lon="5.12089">
        <ele>275.07</ele>
        <time>2019-11-18T13:57:18Z</time>
      </trkpt>
      <trkpt lat="43.98736" lon="5.12073">
        <ele>273.63</ele>
        <time>2019-11-18T13:57:41Z</time>
      </trkpt>
      <trkpt lat="43.98734" lon="5.12049">
        <ele>271.23</ele>
        <time>2019-11-18T13:58:00Z</time>
      </trkpt>
      <trkpt lat="43.9874" lon="5.12033">
        <ele>269.79</ele>
        <time>2019-11-18T13:58:15Z</time>
      </trkpt>
      <trkpt lat="43.98749" lon="5.12026">
        <ele>267.86</ele>
        <time>2019-11-18T13:58:36Z</time>
      </trkpt>
      <trkpt lat="43.98756" lon="5.12027">
        <ele>264.98</ele>
        <time>2019-11-18T13:58:51Z</time>
      </trkpt>
      <trkpt lat="43.98773" lon="5.12022">
        <ele>262.1</ele>
        <time>2019-11-18T13:59:12Z</time>
      </trkpt>
      <trkpt lat="43.98766" lon="5.12018">
        <ele>259.21</ele>
        <time>2019-11-18T13:59:24Z</time>
      </trkpt>
      <trkpt lat="43.98761" lon="5.12008">
        <ele>255.85</ele>
        <time>2019-11-18T13:59:40Z</time>
      </trkpt>
      <trkpt lat="43.98764" lon="5.11996">
        <ele>252.96</ele>
        <time>2019-11-18T14:00:03Z</time>
      </trkpt>
      <trkpt lat="43.98763" lon="5.11976">
        <ele>249.12</ele>
        <time>2019-11-18T14:00:22Z</time>
      </trkpt>
      <trkpt lat="43.98765" lon="5.11975">
        <ele>248.64</ele>
        <time>2019-11-18T14:00:52Z</time>
      </trkpt>
      <trkpt lat="43.98763" lon="5.11974">
        <ele>249.12</ele>
        <time>2019-11-18T14:01:25Z</time>
      </trkpt>
      <trkpt lat="43.9875" lon="5.11976">
        <ele>246.23</ele>
        <time>2019-11-18T14:01:41Z</time>
      </trkpt>
      <trkpt lat="43.98745" lon="5.11971">
        <ele>244.31</ele>
        <time>2019-11-18T14:01:48Z</time>
      </trkpt>
      <trkpt lat="43.98735" lon="5.1196">
        <ele>240.95</ele>
        <time>2019-11-18T14:02:01Z</time>
      </trkpt>
      <trkpt lat="43.98727" lon="5.11948">
        <ele>237.58</ele>
        <time>2019-11-18T14:02:13Z</time>
      </trkpt>
      <trkpt lat="43.9872" lon="5.11936">
        <ele>234.7</ele>
        <time>2019-11-18T14:02:24Z</time>
      </trkpt>
      <trkpt lat="43.98713" lon="5.11924">
        <ele>231.81</ele>
        <time>2019-11-18T14:02:38Z</time>
      </trkpt>
      <trkpt lat="43.98697" lon="5.11922">
        <ele>228.93</ele>
        <time>2019-11-18T14:02:58Z</time>
      </trkpt>
      <trkpt lat="43.9868" lon="5.11926">
        <ele>226.05</ele>
        <time>2019-11-18T14:03:17Z</time>
      </trkpt>
      <trkpt lat="43.98666" lon="5.11932">
        <ele>223.64</ele>
        <time>2019-11-18T14:03:32Z</time>
      </trkpt>
      <trkpt lat="43.98653" lon="5.11938">
        <ele>220.76</ele>
        <time>2019-11-18T14:03:48Z</time>
      </trkpt>
      <trkpt lat="43.98652" lon="5.11938">
        <ele>220.28</ele>
        <time>2019-11-18T14:03:49Z</time>
      </trkpt>
      <trkpt lat="43.98647" lon="5.11936">
        <ele>218.36</ele>
        <time>2019-11-18T14:04:07Z</time>
      </trkpt>
      <trkpt lat="43.98647" lon="5.11939">
        <ele>218.36</ele>
        <time>2019-11-18T14:04:32Z</time>
      </trkpt>
      <trkpt lat="43.98641" lon="5.11941">
        <ele>217.88</ele>
        <time>2019-11-18T14:04:49Z</time>
      </trkpt>
      <trkpt lat="43.98626" lon="5.11947">
        <ele>216.43</ele>
        <time>2019-11-18T14:05:01Z</time>
      </trkpt>
      <trkpt lat="43.98604" lon="5.11945">
        <ele>214.51</ele>
        <time>2019-11-18T14:05:21Z</time>
      </trkpt>
      <trkpt lat="43.98603" lon="5.11945">
        <ele>214.51</ele>
        <time>2019-11-18T14:05:22Z</time>
      </trkpt>
      <trkpt lat="43.98591" lon="5.11929">
        <ele>212.59</ele>
        <time>2019-11-18T14:05:38Z</time>
      </trkpt>
      <trkpt lat="43.98579" lon="5.11911">
        <ele>210.67</ele>
        <time>2019-11-18T14:05:55Z</time>
      </trkpt>
      <trkpt lat="43.98564" lon="5.11891">
        <ele>209.22</ele>
        <time>2019-11-18T14:06:13Z</time>
      </trkpt>
      <trkpt lat="43.98559" lon="5.11888">
        <ele>209.22</ele>
        <time>2019-11-18T14:06:30Z</time>
      </trkpt>
      <trkpt lat="43.98557" lon="5.11887">
        <ele>209.22</ele>
        <time>2019-11-18T14:06:32Z</time>
      </trkpt>
      <trkpt lat="43.98541" lon="5.11886">
        <ele>209.22</ele>
        <time>2019-11-18T14:06:45Z</time>
      </trkpt>
      <trkpt lat="43.98519" lon="5.11878">
        <ele>210.19</ele>
        <time>2019-11-18T14:07:04Z</time>
      </trkpt>
      <trkpt lat="43.98501" lon="5.1187">
        <ele>211.63</ele>
        <time>2019-11-18T14:07:21Z</time>
      </trkpt>
      <trkpt lat="43.98484" lon="5.11867">
        <ele>212.59</ele>
        <time>2019-11-18T14:07:36Z</time>
      </trkpt>
      <trkpt lat="43.98476" lon="5.11862">
        <ele>213.55</ele>
        <time>2019-11-18T14:07:46Z</time>
      </trkpt>
      <trkpt lat="43.98459" lon="5.11861">
        <ele>214.51</ele>
        <time>2019-11-18T14:08:02Z</time>
      </trkpt>
      <trkpt lat="43.98439" lon="5.11854">
        <ele>215.95</ele>
        <time>2019-11-18T14:08:21Z</time>
      </trkpt>
      <trkpt lat="43.98424" lon="5.11846">
        <ele>217.4</ele>
        <time>2019-11-18T14:08:42Z</time>
      </trkpt>
      <trkpt lat="43.98419" lon="5.11835">
        <ele>218.84</ele>
        <time>2019-11-18T14:08:56Z</time>
      </trkpt>
      <trkpt lat="43.98413" lon="5.11809">
        <ele>219.8</ele>
        <time>2019-11-18T14:09:18Z</time>
      </trkpt>
      <trkpt lat="43.98401" lon="5.11803">
        <ele>222.2</ele>
        <time>2019-11-18T14:09:35Z</time>
      </trkpt>
      <trkpt lat="43.98386" lon="5.11811">
        <ele>224.12</ele>
        <time>2019-11-18T14:09:54Z</time>
      </trkpt>
      <trkpt lat="43.98381" lon="5.11819">
        <ele>225.09</ele>
        <time>2019-11-18T14:10:07Z</time>
      </trkpt>
      <trkpt lat="43.98369" lon="5.11833">
        <ele>225.57</ele>
        <time>2019-11-18T14:10:31Z</time>
      </trkpt>
      <trkpt lat="43.98352" lon="5.11848">
        <ele>227.49</ele>
        <time>2019-11-18T14:10:53Z</time>
      </trkpt>
      <trkpt lat="43.98335" lon="5.1186">
        <ele>229.41</ele>
        <time>2019-11-18T14:11:14Z</time>
      </trkpt>
      <trkpt lat="43.98325" lon="5.11872">
        <ele>231.33</ele>
        <time>2019-11-18T14:11:29Z</time>
      </trkpt>
      <trkpt lat="43.98325" lon="5.11885">
        <ele>231.81</ele>
        <time>2019-11-18T14:11:41Z</time>
      </trkpt>
      <trkpt lat="43.98326" lon="5.11886">
        <ele>231.81</ele>
        <time>2019-11-18T14:11:45Z</time>
      </trkpt>
    </trkseg>
  </trk>
</gpx>